Time,TemperatureF,DewpointF,PressureIn,WindDirection,WindDirectionDegrees,WindSpeedMPH,WindSpeedGustMPH,Humidity,HourlyPrecipIn,Conditions,Clouds,dailyrainin,SoftwareType,DateUTC
2013-01-12 00:00:00,54.5,49.8,30.00,NNW,327,0.0,0.0,84,0.00,,SCT,0.00,WeatherDisplay:10.37,2013-01-12 05:00:00,
2013-01-12 00:01:00,54.5,49.8,30.00,NNW,327,0.0,0.0,84,0.00,,SCT,0.00,WeatherDisplay:10.37,2013-01-12 05:01:00,
2013-01-12 00:02:00,54.7,50.0,30.00,NNW,327,0.0,0.0,84,0.00,,SCT,0.00,WeatherDisplay:10.37,2013-01-12 05:02:00,
2013-01-12 00:08:00,54.7,50.0,30.00,NNW,327,0.0,0.0,84,0.00,,SCT,0.00,WeatherDisplay:10.37,2013-01-12 05:08:00,
2013-01-12 00:10:00,54.7,50.0,30.00,NNW,327,0.0,0.0,84,0.00,,SCT,0.00,WeatherDisplay:10.37,2013-01-12 05:10:00,
2013-01-12 00:13:00,54.8,50.4,30.00,NNW,327,0.0,0.0,85,0.00,,SCT,0.00,WeatherDisplay:10.37,2013-01-12 05:13:00,
2013-01-12 00:14:00,54.8,50.4,30.00,NNW,327,0.0,0.0,85,0.00,,SCT,0.00,WeatherDisplay:10.37,2013-01-12 05:14:00,
2013-01-12 00:15:00,54.8,50.4,30.00,NNW,327,0.0,0.0,85,0.00,,SCT,0.00,WeatherDisplay:10.37,2013-01-12 05:15:00,
2013-01-12 00:19:00,55.0,50.6,30.00,NNW,327,0.0,0.0,85,0.00,,SCT,0.00,WeatherDisplay:10.37,2013-01-12 05:19:00,
2013-01-12 00:21:00,55.0,50.6,29.99,NNW,327,0.0,0.0,85,0.00,,SCT,0.00,WeatherDisplay:10.37,2013-01-12 05:21:00,
2013-01-12 00:23:00,55.0,50.6,29.99,NNW,327,0.0,0.0,85,0.00,,SCT,0.00,WeatherDisplay:10.37,2013-01-12 05:23:00,
2013-01-12 00:25:00,55.1,50.7,29.99,NNW,327,0.0,0.0,85,0.00,,SCT,0.00,WeatherDisplay:10.37,2013-01-12 05:25:00,
2013-01-12 00:26:00,55.1,50.7,29.99,NNW,327,0.0,0.0,85,0.00,,SCT,0.00,WeatherDisplay:10.37,2013-01-12 05:26:00,
2013-01-12 00:30:00,55.1,50.7,29.99,NNW,327,0.0,0.0,85,0.00,,SCT,0.00,WeatherDisplay:10.37,2013-01-12 05:30:00,
2013-01-12 00:31:00,55.1,50.7,29.99,NNW,327,0.0,0.0,85,0.00,,SCT,0.00,WeatherDisplay:10.37,2013-01-12 05:31:00,
2013-01-12 00:35:00,55.0,50.6,29.99,NNW,327,0.0,0.0,85,0.00,,SCT,0.00,WeatherDisplay:10.37,2013-01-12 05:35:00,
2013-01-12 00:36:00,55.0,50.6,29.99,NNW,327,0.0,0.0,85,0.00,,SCT,0.00,WeatherDisplay:10.37,2013-01-12 05:36:00,
2013-01-12 00:37:00,55.0,50.6,29.99,NNW,327,0.0,0.0,85,0.00,,SCT,0.00,WeatherDisplay:10.37,2013-01-12 05:37:00,
2013-01-12 00:40:00,55.0,50.3,29.99,NNW,327,0.0,0.0,84,0.00,,SCT,0.00,WeatherDisplay:10.37,2013-01-12 05:40:00,
2013-01-12 00:42:00,55.0,50.3,29.99,NNW,327,0.0,0.0,84,0.00,,SCT,0.00,WeatherDisplay:10.37,2013-01-12 05:42:00,
2013-01-12 00:44:00,55.0,50.3,29.98,NNW,327,0.0,0.0,84,0.00,,SCT,0.00,WeatherDisplay:10.37,2013-01-12 05:44:00,
2013-01-12 00:46:00,55.1,50.7,29.98,NNW,327,0.0,0.0,85,0.00,,SCT,0.00,WeatherDisplay:10.37,2013-01-12 05:46:00,
2013-01-12 00:47:00,55.1,50.7,29.98,NNW,327,0.0,0.0,85,0.00,,SCT,0.00,WeatherDisplay:10.37,2013-01-12 05:47:00,
2013-01-12 00:49:00,55.1,50.7,29.98,NNW,327,0.0,0.0,85,0.00,,SCT,0.00,WeatherDisplay:10.37,2013-01-12 05:49:00,
2013-01-12 00:51:00,55.1,50.7,29.98,NNW,327,0.0,0.0,85,0.00,,SCT,0.00,WeatherDisplay:10.37,2013-01-12 05:51:00,
2013-01-12 00:52:00,55.1,50.7,29.98,NNW,327,0.0,0.0,85,0.00,,SCT,0.00,WeatherDisplay:10.37,2013-01-12 05:52:00,
2013-01-12 00:53:00,55.3,50.9,29.98,NNW,327,0.0,0.0,85,0.00,,SCT,0.00,WeatherDisplay:10.37,2013-01-12 05:53:00,
2013-01-12 00:55:00,55.3,50.9,29.98,NNW,327,0.0,0.0,85,0.00,,SCT,0.00,WeatherDisplay:10.37,2013-01-12 05:55:00,
2013-01-12 00:56:00,55.3,50.9,29.98,NNW,327,0.0,0.0,85,0.00,,SCT,0.00,WeatherDisplay:10.37,2013-01-12 05:56:00,
2013-01-12 00:59:00,55.3,50.9,29.98,NNW,327,0.0,0.0,85,0.00,,SCT,0.00,WeatherDisplay:10.37,2013-01-12 05:59:00,
2013-01-12 01:00:00,55.3,50.9,29.98,NNW,327,0.0,0.0,85,0.00,,SCT,0.00,WeatherDisplay:10.37,2013-01-12 06:00:00,
2013-01-12 01:01:00,55.3,50.9,29.98,NNW,327,0.0,0.0,85,0.00,,SCT,0.00,WeatherDisplay:10.37,2013-01-12 06:01:00,
2013-01-12 01:06:00,55.4,51.0,29.98,NNW,327,0.0,0.0,85,0.00,,SCT,0.00,WeatherDisplay:10.37,2013-01-12 06:06:00,
2013-01-12 01:07:00,55.4,51.0,29.98,NNW,327,0.0,0.0,85,0.00,,SCT,0.00,WeatherDisplay:10.37,2013-01-12 06:07:00,
2013-01-12 01:12:00,55.4,51.0,29.98,NNW,327,0.0,0.0,85,0.00,,SCT,0.00,WeatherDisplay:10.37,2013-01-12 06:12:00,
2013-01-12 01:13:00,55.4,51.0,29.98,NNW,327,0.0,0.0,85,0.00,,SCT,0.00,WeatherDisplay:10.37,2013-01-12 06:13:00,
2013-01-12 01:17:00,55.4,51.0,29.98,NNW,327,0.0,0.0,85,0.00,,SCT,0.00,WeatherDisplay:10.37,2013-01-12 06:17:00,
2013-01-12 01:18:00,55.4,51.0,29.98,NNW,327,0.0,0.0,85,0.00,,SCT,0.00,WeatherDisplay:10.37,2013-01-12 06:18:00,
2013-01-12 01:23:00,55.4,51.0,29.98,NNW,327,0.0,0.0,85,0.00,,SCT,0.00,WeatherDisplay:10.37,2013-01-12 06:23:00,
2013-01-12 01:25:00,55.4,51.0,29.99,NNW,327,0.0,0.0,85,0.00,,SCT,0.00,WeatherDisplay:10.37,2013-01-12 06:25:00,
2013-01-12 01:28:00,55.4,51.0,29.98,NNW,327,0.0,0.0,85,0.00,,SCT,0.00,WeatherDisplay:10.37,2013-01-12 06:28:00,
2013-01-12 01:32:00,55.4,51.0,29.99,NNW,327,0.0,0.0,85,0.00,,SCT,0.00,WeatherDisplay:10.37,2013-01-12 06:32:00,
2013-01-12 01:33:00,55.4,51.0,29.99,NNW,327,0.0,0.0,85,0.00,,SCT,0.00,WeatherDisplay:10.37,2013-01-12 06:33:00,
2013-01-12 01:37:00,55.4,51.0,29.99,NNW,327,0.0,0.0,85,0.00,,SCT,0.00,WeatherDisplay:10.37,2013-01-12 06:37:00,
2013-01-12 01:38:00,55.4,51.0,29.99,NNW,327,0.0,0.0,85,0.00,,SCT,0.00,WeatherDisplay:10.37,2013-01-12 06:38:00,
2013-01-12 01:43:00,55.6,51.2,29.99,NNW,327,0.0,0.0,85,0.00,,SCT,0.00,WeatherDisplay:10.37,2013-01-12 06:43:00,
2013-01-12 01:46:00,55.6,51.2,29.99,NNW,327,0.0,0.0,85,0.00,,SCT,0.00,WeatherDisplay:10.37,2013-01-12 06:46:00,
2013-01-12 01:48:00,55.6,51.2,29.99,NNW,327,2.3,2.3,85,0.00,,SCT,0.00,WeatherDisplay:10.37,2013-01-12 06:48:00,
2013-01-12 01:50:00,55.6,51.2,29.98,NNW,327,0.0,0.0,85,0.00,,SCT,0.00,WeatherDisplay:10.37,2013-01-12 06:50:00,
2013-01-12 01:51:00,55.6,51.2,29.98,NNW,327,0.0,0.0,85,0.00,,SCT,0.00,WeatherDisplay:10.37,2013-01-12 06:51:00,
2013-01-12 01:53:00,55.6,51.2,29.98,NNW,327,0.0,0.0,85,0.00,,SCT,0.00,WeatherDisplay:10.37,2013-01-12 06:53:00,
2013-01-12 01:55:00,55.6,51.2,29.98,NNW,327,0.0,0.0,85,0.00,,SCT,0.00,WeatherDisplay:10.37,2013-01-12 06:55:00,
2013-01-12 01:56:00,55.6,51.2,29.98,NNW,327,0.0,0.0,85,0.00,,SCT,0.00,WeatherDisplay:10.37,2013-01-12 06:56:00,
2013-01-12 01:59:00,55.6,51.2,29.99,NNW,327,0.0,0.0,85,0.00,,SCT,0.00,WeatherDisplay:10.37,2013-01-12 06:59:00,
2013-01-12 02:00:00,55.6,51.2,29.99,NNW,327,0.0,0.0,85,0.00,,SCT,0.00,WeatherDisplay:10.37,2013-01-12 07:00:00,
2013-01-12 02:04:00,55.6,51.2,29.99,NNW,327,0.0,0.0,85,0.00,,SCT,0.00,WeatherDisplay:10.37,2013-01-12 07:04:00,
2013-01-12 02:05:00,55.6,51.2,29.98,NNW,327,0.0,0.0,85,0.00,,SCT,0.00,WeatherDisplay:10.37,2013-01-12 07:05:00,
2013-01-12 02:10:00,55.6,51.2,29.98,NNW,327,0.0,0.0,85,0.00,,SCT,0.00,WeatherDisplay:10.37,2013-01-12 07:10:00,
2013-01-12 02:11:00,55.6,51.2,29.98,NNW,327,0.0,0.0,85,0.00,,SCT,0.00,WeatherDisplay:10.37,2013-01-12 07:11:00,
2013-01-12 02:12:00,55.6,51.2,29.98,NNW,327,0.0,0.0,85,0.00,,SCT,0.00,WeatherDisplay:10.37,2013-01-12 07:12:00,
2013-01-12 02:14:00,55.6,51.2,29.98,NNW,327,0.0,0.0,85,0.00,,SCT,0.00,WeatherDisplay:10.37,2013-01-12 07:14:00,
2013-01-12 02:16:00,55.6,51.2,29.98,NNW,327,0.0,0.0,85,0.00,,SCT,0.00,WeatherDisplay:10.37,2013-01-12 07:16:00,
2013-01-12 02:18:00,55.6,51.2,29.98,NNW,327,0.0,0.0,85,0.00,,SCT,0.00,WeatherDisplay:10.37,2013-01-12 07:18:00,
2013-01-12 02:20:00,55.6,51.2,29.98,NNW,327,0.0,0.0,85,0.00,,SCT,0.00,WeatherDisplay:10.37,2013-01-12 07:20:00,
2013-01-12 02:23:00,55.6,51.5,29.98,NNW,327,0.0,0.0,86,0.00,,SCT,0.00,WeatherDisplay:10.37,2013-01-12 07:23:00,
2013-01-12 02:25:00,55.6,51.5,29.99,NNW,327,0.0,0.0,86,0.00,,SCT,0.00,WeatherDisplay:10.37,2013-01-12 07:25:00,
2013-01-12 02:26:00,55.6,51.5,29.99,NNW,327,0.0,0.0,86,0.00,,SCT,0.00,WeatherDisplay:10.37,2013-01-12 07:26:00,
2013-01-12 02:30:00,55.6,51.5,29.99,NNW,327,0.0,0.0,86,0.00,,SCT,0.00,WeatherDisplay:10.37,2013-01-12 07:30:00,
2013-01-12 02:31:00,55.6,51.5,29.99,NNW,327,0.0,0.0,86,0.00,,SCT,0.00,WeatherDisplay:10.37,2013-01-12 07:31:00,
2013-01-12 02:32:00,55.6,51.2,29.99,NNW,327,0.0,0.0,85,0.00,,SCT,0.00,WeatherDisplay:10.37,2013-01-12 07:32:00,
2013-01-12 02:36:00,55.6,51.2,29.99,NNW,327,0.0,0.0,85,0.00,,SCT,0.00,WeatherDisplay:10.37,2013-01-12 07:36:00,
2013-01-12 02:37:00,55.6,51.2,29.99,NNW,327,0.0,0.0,85,0.00,,SCT,0.00,WeatherDisplay:10.37,2013-01-12 07:37:00,
2013-01-12 02:38:00,55.6,51.5,29.99,NNW,327,0.0,0.0,86,0.00,,SCT,0.00,WeatherDisplay:10.37,2013-01-12 07:38:00,
2013-01-12 02:42:00,55.6,51.5,29.99,NNW,327,0.0,0.0,86,0.00,,SCT,0.00,WeatherDisplay:10.37,2013-01-12 07:42:00,
2013-01-12 02:43:00,55.6,51.2,29.99,NNW,327,0.0,0.0,85,0.00,,SCT,0.00,WeatherDisplay:10.37,2013-01-12 07:43:00,
2013-01-12 02:46:00,55.6,51.2,29.99,NNW,327,0.0,0.0,85,0.00,,SCT,0.00,WeatherDisplay:10.37,2013-01-12 07:46:00,
2013-01-12 02:47:00,55.6,51.2,29.99,NNW,327,0.0,0.0,85,0.00,,SCT,0.00,WeatherDisplay:10.37,2013-01-12 07:47:00,
2013-01-12 02:48:00,55.6,51.2,29.99,NNW,327,0.0,0.0,85,0.00,,SCT,0.00,WeatherDisplay:10.37,2013-01-12 07:48:00,
2013-01-12 02:52:00,55.7,51.3,29.98,NNW,327,0.0,0.0,85,0.00,,SCT,0.00,WeatherDisplay:10.37,2013-01-12 07:52:00,
2013-01-12 02:53:00,55.7,51.3,29.98,NNW,327,0.0,0.0,85,0.00,,SCT,0.00,WeatherDisplay:10.37,2013-01-12 07:53:00,
2013-01-12 02:54:00,55.7,51.3,29.99,NNW,327,0.0,0.0,85,0.00,,SCT,0.00,WeatherDisplay:10.37,2013-01-12 07:54:00,
2013-01-12 02:56:00,55.7,51.3,29.98,NNW,327,0.0,0.0,85,0.00,,SCT,0.00,WeatherDisplay:10.37,2013-01-12 07:56:00,
2013-01-12 02:59:00,55.7,51.3,29.98,NNW,327,0.0,0.0,85,0.00,,SCT,0.00,WeatherDisplay:10.37,2013-01-12 07:59:00,
2013-01-12 03:00:00,55.7,51.3,29.98,NNW,327,0.0,0.0,85,0.00,,SCT,0.00,WeatherDisplay:10.37,2013-01-12 08:00:00,
2013-01-12 03:01:00,55.7,51.3,29.98,NNW,327,0.0,0.0,85,0.00,,SCT,0.00,WeatherDisplay:10.37,2013-01-12 08:01:00,
2013-01-12 03:03:00,55.7,51.3,29.98,NNW,327,0.0,0.0,85,0.00,,SCT,0.00,WeatherDisplay:10.37,2013-01-12 08:03:00,
2013-01-12 03:04:00,55.7,51.3,29.98,NNW,327,0.0,0.0,85,0.00,,SCT,0.00,WeatherDisplay:10.37,2013-01-12 08:04:00,
2013-01-12 03:05:00,55.7,51.3,29.98,NNW,327,0.0,0.0,85,0.00,,SCT,0.00,WeatherDisplay:10.37,2013-01-12 08:05:00,
2013-01-12 03:06:00,55.7,51.6,29.98,NNW,327,0.0,0.0,86,0.00,,SCT,0.00,WeatherDisplay:10.37,2013-01-12 08:06:00,
2013-01-12 03:10:00,55.7,51.6,29.98,NNW,327,0.0,0.0,86,0.00,,SCT,0.00,WeatherDisplay:10.37,2013-01-12 08:10:00,
2013-01-12 03:11:00,55.7,51.6,29.98,NNW,327,0.0,0.0,86,0.00,,SCT,0.00,WeatherDisplay:10.37,2013-01-12 08:11:00,
2013-01-12 03:12:00,55.7,51.6,29.98,NNW,327,0.0,0.0,86,0.00,,SCT,0.00,WeatherDisplay:10.37,2013-01-12 08:12:00,
2013-01-12 03:13:00,55.7,51.6,29.98,NNW,327,0.0,0.0,86,0.00,,SCT,0.00,WeatherDisplay:10.37,2013-01-12 08:13:00,
2013-01-12 03:16:00,55.7,51.6,29.98,NNW,327,0.0,0.0,86,0.00,,SCT,0.00,WeatherDisplay:10.37,2013-01-12 08:16:00,
2013-01-12 03:18:00,55.6,51.5,29.98,NNW,327,0.0,0.0,86,0.00,,SCT,0.00,WeatherDisplay:10.37,2013-01-12 08:18:00,
2013-01-12 03:19:00,55.6,51.5,29.98,NNW,327,0.0,0.0,86,0.00,,SCT,0.00,WeatherDisplay:10.37,2013-01-12 08:19:00,
2013-01-12 03:21:00,55.6,51.5,29.98,NNW,327,0.0,0.0,86,0.00,,SCT,0.00,WeatherDisplay:10.37,2013-01-12 08:21:00,
2013-01-12 03:23:00,55.6,51.5,29.98,NNW,327,0.0,0.0,86,0.00,,SCT,0.00,WeatherDisplay:10.37,2013-01-12 08:23:00,
2013-01-12 03:24:00,55.6,51.5,29.98,NNW,327,0.0,0.0,86,0.00,,SCT,0.00,WeatherDisplay:10.37,2013-01-12 08:24:00,
2013-01-12 03:26:00,55.6,51.5,29.98,NNW,327,0.0,0.0,86,0.00,,SCT,0.00,WeatherDisplay:10.37,2013-01-12 08:26:00,
2013-01-12 03:28:00,55.6,51.5,29.98,NNW,327,0.0,0.0,86,0.00,,SCT,0.00,WeatherDisplay:10.37,2013-01-12 08:28:00,
2013-01-12 03:30:00,55.6,51.5,29.98,NNW,327,0.0,0.0,86,0.00,,SCT,0.00,WeatherDisplay:10.37,2013-01-12 08:30:00,
2013-01-12 03:31:00,55.6,51.5,29.98,NNW,327,0.0,0.0,86,0.00,,SCT,0.00,WeatherDisplay:10.37,2013-01-12 08:31:00,
2013-01-12 03:35:00,55.6,51.5,29.98,NNW,327,0.0,0.0,86,0.00,,SCT,0.00,WeatherDisplay:10.37,2013-01-12 08:35:00,
2013-01-12 03:38:00,55.6,51.2,29.98,NNW,327,0.0,0.0,85,0.00,,SCT,0.00,WeatherDisplay:10.37,2013-01-12 08:38:00,
2013-01-12 03:39:00,55.6,51.5,29.98,NNW,327,0.0,0.0,86,0.00,,SCT,0.00,WeatherDisplay:10.37,2013-01-12 08:39:00,
2013-01-12 03:40:00,55.6,51.5,29.98,NNW,327,0.0,0.0,86,0.00,,SCT,0.00,WeatherDisplay:10.37,2013-01-12 08:40:00,
2013-01-12 03:41:00,55.6,51.5,29.98,NNW,327,0.0,0.0,86,0.00,,SCT,0.00,WeatherDisplay:10.37,2013-01-12 08:41:00,
2013-01-12 03:44:00,55.6,51.5,29.98,NNW,327,0.0,0.0,86,0.00,,SCT,0.00,WeatherDisplay:10.37,2013-01-12 08:44:00,
2013-01-12 03:46:00,55.6,51.5,29.98,NNW,327,0.0,0.0,86,0.00,,SCT,0.00,WeatherDisplay:10.37,2013-01-12 08:46:00,
2013-01-12 03:48:00,55.6,51.5,29.98,NNW,327,0.0,0.0,86,0.00,,SCT,0.00,WeatherDisplay:10.37,2013-01-12 08:48:00,
2013-01-12 03:51:00,55.6,51.5,29.98,NNW,327,0.0,0.0,86,0.00,,SCT,0.00,WeatherDisplay:10.37,2013-01-12 08:51:00,
2013-01-12 03:53:00,55.6,51.5,29.98,NNW,327,0.0,0.0,86,0.00,,SCT,0.00,WeatherDisplay:10.37,2013-01-12 08:53:00,
2013-01-12 03:54:00,55.6,51.5,29.98,NNW,327,0.0,0.0,86,0.00,,SCT,0.00,WeatherDisplay:10.37,2013-01-12 08:54:00,
2013-01-12 03:56:00,55.4,51.3,29.98,NNW,327,0.0,0.0,86,0.00,,SCT,0.00,WeatherDisplay:10.37,2013-01-12 08:56:00,
2013-01-12 03:58:00,55.6,51.5,29.97,NNW,327,0.0,0.0,86,0.00,,SCT,0.00,WeatherDisplay:10.37,2013-01-12 08:58:00,
2013-01-12 03:59:00,55.6,51.5,29.97,NNW,327,0.0,0.0,86,0.00,,SCT,0.00,WeatherDisplay:10.37,2013-01-12 08:59:00,
2013-01-12 04:02:00,55.4,51.3,29.98,NNW,327,0.0,0.0,86,0.00,,SCT,0.00,WeatherDisplay:10.37,2013-01-12 09:02:00,
2013-01-12 04:03:00,55.4,51.3,29.98,NNW,327,0.0,0.0,86,0.00,,SCT,0.00,WeatherDisplay:10.37,2013-01-12 09:03:00,
2013-01-12 04:07:00,55.4,51.3,29.98,NNW,327,0.0,0.0,86,0.00,,SCT,0.00,WeatherDisplay:10.37,2013-01-12 09:07:00,
2013-01-12 04:08:00,55.4,51.3,29.98,NNW,327,0.0,0.0,86,0.00,,SCT,0.00,WeatherDisplay:10.37,2013-01-12 09:08:00,
2013-01-12 04:13:00,55.4,51.3,29.98,NNW,327,0.0,0.0,86,0.00,,SCT,0.00,WeatherDisplay:10.37,2013-01-12 09:13:00,
2013-01-12 04:14:00,55.4,51.3,29.98,NNW,327,0.0,0.0,86,0.00,,SCT,0.00,WeatherDisplay:10.37,2013-01-12 09:14:00,
2013-01-12 04:15:00,55.4,51.3,29.98,NNW,327,0.0,0.0,86,0.00,,SCT,0.00,WeatherDisplay:10.37,2013-01-12 09:15:00,
2013-01-12 04:16:00,55.4,51.3,29.98,NNW,327,0.0,0.0,86,0.00,,SCT,0.00,WeatherDisplay:10.37,2013-01-12 09:16:00,
2013-01-12 04:20:00,55.4,51.6,29.98,NNW,327,0.0,0.0,87,0.00,,SCT,0.00,WeatherDisplay:10.37,2013-01-12 09:20:00,
2013-01-12 04:21:00,55.4,51.6,29.98,NNW,327,0.0,0.0,87,0.00,,SCT,0.00,WeatherDisplay:10.37,2013-01-12 09:21:00,
2013-01-12 04:24:00,55.4,51.6,29.98,NNW,327,0.0,0.0,87,0.00,,SCT,0.00,WeatherDisplay:10.37,2013-01-12 09:24:00,
2013-01-12 04:26:00,55.4,51.6,29.98,NNW,327,0.0,0.0,87,0.00,,SCT,0.00,WeatherDisplay:10.37,2013-01-12 09:26:00,
2013-01-12 04:27:00,55.4,51.6,29.98,NNW,327,0.0,0.0,87,0.00,,SCT,0.00,WeatherDisplay:10.37,2013-01-12 09:27:00,
2013-01-12 04:29:00,55.4,51.6,29.98,NNW,327,0.0,0.0,87,0.00,,SCT,0.00,WeatherDisplay:10.37,2013-01-12 09:29:00,
2013-01-12 04:31:00,55.4,51.6,29.98,NNW,327,0.0,0.0,87,0.00,,SCT,0.00,WeatherDisplay:10.37,2013-01-12 09:31:00,
2013-01-12 04:32:00,55.4,51.6,29.98,NNW,327,0.0,0.0,87,0.00,,SCT,0.00,WeatherDisplay:10.37,2013-01-12 09:32:00,
2013-01-12 04:34:00,55.4,51.6,29.98,NNW,327,0.0,0.0,87,0.00,,SCT,0.00,WeatherDisplay:10.37,2013-01-12 09:34:00,
2013-01-12 04:39:00,55.6,51.8,29.98,NNW,327,0.0,0.0,87,0.00,,SCT,0.00,WeatherDisplay:10.37,2013-01-12 09:39:00,
2013-01-12 04:40:00,55.6,51.8,29.98,NNW,327,0.0,0.0,87,0.00,,SCT,0.00,WeatherDisplay:10.37,2013-01-12 09:40:00,
2013-01-12 04:42:00,55.4,51.6,29.98,NNW,327,0.0,0.0,87,0.00,,SCT,0.00,WeatherDisplay:10.37,2013-01-12 09:42:00,
2013-01-12 04:45:00,55.4,51.6,29.98,NNW,327,0.0,0.0,87,0.00,,SCT,0.00,WeatherDisplay:10.37,2013-01-12 09:45:00,
2013-01-12 04:47:00,55.4,51.6,29.98,NNW,327,0.0,0.0,87,0.00,,SCT,0.00,WeatherDisplay:10.37,2013-01-12 09:47:00,
2013-01-12 04:52:00,55.4,51.3,29.98,NNW,327,0.0,0.0,86,0.00,,SCT,0.00,WeatherDisplay:10.37,2013-01-12 09:52:00,
2013-01-12 04:53:00,55.4,51.3,29.98,NNW,327,0.0,0.0,86,0.00,,SCT,0.00,WeatherDisplay:10.37,2013-01-12 09:53:00,
2013-01-12 04:58:00,55.4,51.6,29.98,NNW,327,0.0,0.0,87,0.00,,SCT,0.00,WeatherDisplay:10.37,2013-01-12 09:58:00,
2013-01-12 05:03:00,55.4,51.6,29.98,NNW,327,0.0,0.0,87,0.00,,SCT,0.00,WeatherDisplay:10.37,2013-01-12 10:03:00,
2013-01-12 05:04:00,55.4,51.6,29.98,NNW,327,0.0,0.0,87,0.00,,SCT,0.00,WeatherDisplay:10.37,2013-01-12 10:04:00,
2013-01-12 05:09:00,55.3,51.5,29.99,NNW,327,0.0,0.0,87,0.00,,SCT,0.00,WeatherDisplay:10.37,2013-01-12 10:09:00,
2013-01-12 05:10:00,55.3,51.5,29.99,NNW,327,0.0,0.0,87,0.00,,SCT,0.00,WeatherDisplay:10.37,2013-01-12 10:10:00,
2013-01-12 05:14:00,55.3,51.5,29.99,NNW,327,0.0,0.0,87,0.00,,SCT,0.00,WeatherDisplay:10.37,2013-01-12 10:14:00,
2013-01-12 05:16:00,55.1,51.3,29.99,NNW,327,0.0,0.0,87,0.00,,SCT,0.00,WeatherDisplay:10.37,2013-01-12 10:16:00,
2013-01-12 05:19:00,55.1,51.3,29.99,NNW,327,0.0,0.0,87,0.00,,SCT,0.00,WeatherDisplay:10.37,2013-01-12 10:19:00,
2013-01-12 05:24:00,54.8,50.7,29.99,NNW,327,0.0,0.0,86,0.00,,SCT,0.00,WeatherDisplay:10.37,2013-01-12 10:24:00,
2013-01-12 05:26:00,54.7,50.6,29.99,NNW,327,0.0,0.0,86,0.00,,SCT,0.00,WeatherDisplay:10.37,2013-01-12 10:26:00,
2013-01-12 05:31:00,54.5,50.7,29.99,NNW,327,0.0,0.0,87,0.00,,SCT,0.00,WeatherDisplay:10.37,2013-01-12 10:31:00,
2013-01-12 05:32:00,54.5,50.7,29.99,NNW,327,0.0,0.0,87,0.00,,SCT,0.00,WeatherDisplay:10.37,2013-01-12 10:32:00,
2013-01-12 05:37:00,54.4,50.6,29.99,NNW,327,0.0,0.0,87,0.00,,SCT,0.00,WeatherDisplay:10.37,2013-01-12 10:37:00,
2013-01-12 05:42:00,54.2,50.4,30.00,NNW,327,0.0,0.0,87,0.00,,SCT,0.00,WeatherDisplay:10.37,2013-01-12 10:42:00,
2013-01-12 05:43:00,54.1,50.0,29.99,NNW,327,0.0,0.0,86,0.00,,SCT,0.00,WeatherDisplay:10.37,2013-01-12 10:43:00,
2013-01-12 05:47:00,54.1,50.3,30.00,NNW,327,0.0,0.0,87,0.00,,SCT,0.00,WeatherDisplay:10.37,2013-01-12 10:47:00,
2013-01-12 05:48:00,53.9,50.1,29.99,NNW,327,0.0,0.0,87,0.00,,SCT,0.00,WeatherDisplay:10.37,2013-01-12 10:48:00,
2013-01-12 05:50:00,53.9,50.1,29.99,NNW,327,0.0,0.0,87,0.00,,SCT,0.00,WeatherDisplay:10.37,2013-01-12 10:50:00,
2013-01-12 05:53:00,53.9,50.1,30.00,NNW,327,0.0,0.0,87,0.00,,SCT,0.00,WeatherDisplay:10.37,2013-01-12 10:53:00,
2013-01-12 05:54:00,53.9,50.1,30.00,NNW,327,0.0,0.0,87,0.00,,SCT,0.00,WeatherDisplay:10.37,2013-01-12 10:54:00,
2013-01-12 05:56:00,53.8,50.0,30.00,NNW,327,0.0,0.0,87,0.00,,SCT,0.00,WeatherDisplay:10.37,2013-01-12 10:56:00,
2013-01-12 05:58:00,53.8,50.0,30.00,NNW,327,0.0,0.0,87,0.00,,SCT,0.00,WeatherDisplay:10.37,2013-01-12 10:58:00,
2013-01-12 05:59:00,53.8,50.0,30.00,NNW,327,0.0,0.0,87,0.00,,SCT,0.00,WeatherDisplay:10.37,2013-01-12 10:59:00,
2013-01-12 06:01:00,53.6,49.8,30.00,NNW,327,0.0,0.0,87,0.00,,SCT,0.00,WeatherDisplay:10.37,2013-01-12 11:01:00,
2013-01-12 06:03:00,53.6,49.8,30.00,NNW,327,0.0,0.0,87,0.00,,SCT,0.00,WeatherDisplay:10.37,2013-01-12 11:03:00,
2013-01-12 06:05:00,53.5,49.7,30.01,NNW,327,0.0,0.0,87,0.00,,SCT,0.00,WeatherDisplay:10.37,2013-01-12 11:05:00,
2013-01-12 06:07:00,53.5,49.7,30.01,NNW,327,0.0,0.0,87,0.00,,SCT,0.00,WeatherDisplay:10.37,2013-01-12 11:07:00,
2013-01-12 06:08:00,53.5,49.7,30.01,NNW,327,0.0,0.0,87,0.00,,SCT,0.00,WeatherDisplay:10.37,2013-01-12 11:08:00,
2013-01-12 06:11:00,53.5,49.7,30.01,NNW,327,0.0,0.0,87,0.00,,SCT,0.00,WeatherDisplay:10.37,2013-01-12 11:11:00,
2013-01-12 06:13:00,53.5,49.7,30.01,NNW,327,0.0,0.0,87,0.00,,SCT,0.00,WeatherDisplay:10.37,2013-01-12 11:13:00,
2013-01-12 06:15:00,53.6,49.8,30.01,NNW,327,0.0,0.0,87,0.00,,SCT,0.00,WeatherDisplay:10.37,2013-01-12 11:15:00,
2013-01-12 06:20:00,53.5,49.7,30.01,NNW,327,0.0,0.0,87,0.00,,SCT,0.00,WeatherDisplay:10.37,2013-01-12 11:20:00,
2013-01-12 06:21:00,53.5,49.7,30.01,NNW,327,0.0,0.0,87,0.00,,SCT,0.00,WeatherDisplay:10.37,2013-01-12 11:21:00,
2013-01-12 06:24:00,53.5,49.7,30.01,NNW,327,0.0,0.0,87,0.00,,SCT,0.00,WeatherDisplay:10.37,2013-01-12 11:24:00,
2013-01-12 06:27:00,53.5,49.7,30.01,NNW,327,0.0,0.0,87,0.00,,SCT,0.00,WeatherDisplay:10.37,2013-01-12 11:27:00,
2013-01-12 06:31:00,53.5,49.7,30.01,NNW,327,0.0,0.0,87,0.00,,SCT,0.00,WeatherDisplay:10.37,2013-01-12 11:31:00,
2013-01-12 06:32:00,53.5,49.7,30.02,NNW,327,0.0,0.0,87,0.00,,SCT,0.00,WeatherDisplay:10.37,2013-01-12 11:32:00,
2013-01-12 06:37:00,53.5,49.7,30.02,NNW,327,0.0,0.0,87,0.00,,SCT,0.00,WeatherDisplay:10.37,2013-01-12 11:37:00,
2013-01-12 06:38:00,53.5,49.7,30.02,NNW,327,0.0,0.0,87,0.00,,SCT,0.00,WeatherDisplay:10.37,2013-01-12 11:38:00,
2013-01-12 06:41:00,53.5,50.0,30.02,NNW,327,0.0,0.0,88,0.00,,SCT,0.00,WeatherDisplay:10.37,2013-01-12 11:41:00,
2013-01-12 06:43:00,53.5,50.0,30.02,NNW,327,0.0,0.0,88,0.00,,SCT,0.00,WeatherDisplay:10.37,2013-01-12 11:43:00,
2013-01-12 06:44:00,53.5,50.0,30.02,NNW,327,0.0,0.0,88,0.00,,SCT,0.00,WeatherDisplay:10.37,2013-01-12 11:44:00,
2013-01-12 06:45:00,53.5,50.0,30.02,NNW,327,0.0,0.0,88,0.00,,SCT,0.00,WeatherDisplay:10.37,2013-01-12 11:45:00,
2013-01-12 06:49:00,53.5,50.0,30.02,NNW,327,0.0,0.0,88,0.00,,SCT,0.00,WeatherDisplay:10.37,2013-01-12 11:49:00,
2013-01-12 06:51:00,53.5,50.0,30.02,NNW,327,0.0,0.0,88,0.00,,SCT,0.00,WeatherDisplay:10.37,2013-01-12 11:51:00,
2013-01-12 06:52:00,53.5,50.0,30.02,NNW,327,0.0,0.0,88,0.00,,SCT,0.00,WeatherDisplay:10.37,2013-01-12 11:52:00,
2013-01-12 06:53:00,53.5,50.0,30.02,NNW,327,0.0,0.0,88,0.00,,SCT,0.00,WeatherDisplay:10.37,2013-01-12 11:53:00,
2013-01-12 06:57:00,53.6,50.1,30.02,NNW,327,0.0,0.0,88,0.00,,SCT,0.00,WeatherDisplay:10.37,2013-01-12 11:57:00,
2013-01-12 06:58:00,53.6,50.1,30.02,NNW,327,0.0,0.0,88,0.00,,SCT,0.00,WeatherDisplay:10.37,2013-01-12 11:58:00,
2013-01-12 07:00:00,53.6,50.1,30.02,NNW,327,0.0,0.0,88,0.00,,SCT,0.00,WeatherDisplay:10.37,2013-01-12 12:00:00,
2013-01-12 07:02:00,53.5,50.0,30.02,NNW,327,0.0,0.0,88,0.00,,SCT,0.00,WeatherDisplay:10.37,2013-01-12 12:02:00,
2013-01-12 07:03:00,53.6,50.1,30.02,NNW,327,0.0,0.0,88,0.00,,SCT,0.00,WeatherDisplay:10.37,2013-01-12 12:03:00,
2013-01-12 07:05:00,53.6,50.1,30.03,NNW,327,0.0,0.0,88,0.00,CLR,SCT,0.00,WeatherDisplay:10.37,2013-01-12 12:05:00,
2013-01-12 07:08:00,53.6,50.1,30.03,NNW,327,0.0,0.0,88,0.00,CLR,SCT,0.00,WeatherDisplay:10.37,2013-01-12 12:08:00,
2013-01-12 07:09:00,53.6,50.1,30.03,NNW,327,0.0,0.0,88,0.00,CLR,SCT,0.00,WeatherDisplay:10.37,2013-01-12 12:09:00,
2013-01-12 07:10:00,53.6,50.1,30.03,NNW,327,0.0,0.0,88,0.00,CLR,SCT,0.00,WeatherDisplay:10.37,2013-01-12 12:10:00,
2013-01-12 07:11:00,53.6,50.1,30.03,NNW,327,0.0,0.0,88,0.00,CLR,SCT,0.00,WeatherDisplay:10.37,2013-01-12 12:11:00,
2013-01-12 07:14:00,53.6,50.1,30.03,NNW,327,0.0,0.0,88,0.00,CLR,SCT,0.00,WeatherDisplay:10.37,2013-01-12 12:14:00,
2013-01-12 07:17:00,53.8,50.3,30.03,NNW,327,0.0,0.0,88,0.00,CLR,SCT,0.00,WeatherDisplay:10.37,2013-01-12 12:17:00,
2013-01-12 07:19:00,53.8,50.3,30.03,NNW,327,0.0,0.0,88,0.00,CLR,SCT,0.00,WeatherDisplay:10.37,2013-01-12 12:19:00,
2013-01-12 07:20:00,53.8,50.3,30.03,NNW,327,0.0,0.0,88,0.00,CLR,SCT,0.00,WeatherDisplay:10.37,2013-01-12 12:20:00,
2013-01-12 07:24:00,53.8,50.3,30.03,NNW,327,0.0,0.0,88,0.00,CLR,SCT,0.00,WeatherDisplay:10.37,2013-01-12 12:24:00,
2013-01-12 07:25:00,53.8,50.3,30.03,NNW,327,0.0,0.0,88,0.00,CLR,SCT,0.00,WeatherDisplay:10.37,2013-01-12 12:25:00,
2013-01-12 07:27:00,53.8,50.3,30.03,NNW,327,0.0,0.0,88,0.00,CLR,SCT,0.00,WeatherDisplay:10.37,2013-01-12 12:27:00,
2013-01-12 07:29:00,53.9,50.4,30.04,NNW,327,0.0,0.0,88,0.00,CLR,SCT,0.00,WeatherDisplay:10.37,2013-01-12 12:29:00,
2013-01-12 07:30:00,53.9,50.4,30.04,NNW,327,0.0,0.0,88,0.00,CLR,SCT,0.00,WeatherDisplay:10.37,2013-01-12 12:30:00,
2013-01-12 07:31:00,53.9,50.4,30.04,NNW,327,0.0,0.0,88,0.00,CLR,SCT,0.00,WeatherDisplay:10.37,2013-01-12 12:31:00,
2013-01-12 07:32:00,53.9,50.4,30.04,NNW,327,0.0,0.0,88,0.00,CLR,SCT,0.00,WeatherDisplay:10.37,2013-01-12 12:32:00,
2013-01-12 07:37:00,53.9,50.4,30.03,NNW,327,0.0,0.0,88,0.00,CLR,SCT,0.00,WeatherDisplay:10.37,2013-01-12 12:37:00,
2013-01-12 07:39:00,53.9,50.4,30.03,NNW,327,0.0,0.0,88,0.00,CLR,SCT,0.00,WeatherDisplay:10.37,2013-01-12 12:39:00,
2013-01-12 07:43:00,53.9,50.4,30.03,NNW,327,0.0,0.0,88,0.00,CLR,SCT,0.00,WeatherDisplay:10.37,2013-01-12 12:43:00,
2013-01-12 07:45:00,54.1,50.6,30.03,NNW,327,0.0,0.0,88,0.00,CLR,SCT,0.00,WeatherDisplay:10.37,2013-01-12 12:45:00,
2013-01-12 07:47:00,54.1,50.6,30.04,NNW,327,0.0,0.0,88,0.00,CLR,SCT,0.00,WeatherDisplay:10.37,2013-01-12 12:47:00,
2013-01-12 07:48:00,54.1,50.6,30.04,NNW,327,0.0,0.0,88,0.00,CLR,SCT,0.00,WeatherDisplay:10.37,2013-01-12 12:48:00,
2013-01-12 07:52:00,54.1,50.6,30.04,NNW,327,0.0,0.0,88,0.00,CLR,SCT,0.00,WeatherDisplay:10.37,2013-01-12 12:52:00,
2013-01-12 07:53:00,54.1,50.6,30.04,NNW,327,0.0,0.0,88,0.00,CLR,SCT,0.00,WeatherDisplay:10.37,2013-01-12 12:53:00,
2013-01-12 07:57:00,54.1,50.6,30.04,NNW,327,0.0,0.0,88,0.00,CLR,SCT,0.00,WeatherDisplay:10.37,2013-01-12 12:57:00,
2013-01-12 07:58:00,54.1,50.6,30.04,NNW,327,0.0,0.0,88,0.00,CLR,SCT,0.00,WeatherDisplay:10.37,2013-01-12 12:58:00,
2013-01-12 08:00:00,54.1,50.6,30.05,NNW,327,0.0,0.0,88,0.00,CLR,SCT,0.00,WeatherDisplay:10.37,2013-01-12 13:00:00,
2013-01-12 08:02:00,54.1,50.6,30.05,NNW,327,0.0,0.0,88,0.00,CLR,SCT,0.00,WeatherDisplay:10.37,2013-01-12 13:02:00,
2013-01-12 08:05:00,54.1,50.6,30.05,NNW,327,0.0,0.0,88,0.00,CLR,SCT,0.00,WeatherDisplay:10.37,2013-01-12 13:05:00,
2013-01-12 08:07:00,54.1,50.6,30.05,NNW,327,0.0,0.0,88,0.00,CLR,SCT,0.00,WeatherDisplay:10.37,2013-01-12 13:07:00,
2013-01-12 08:09:00,54.2,50.7,30.05,NNW,327,0.0,0.0,88,0.00,CLR,SCT,0.00,WeatherDisplay:10.37,2013-01-12 13:09:00,
2013-01-12 08:10:00,54.2,50.7,30.05,NNW,327,0.0,0.0,88,0.00,CLR,SCT,0.00,WeatherDisplay:10.37,2013-01-12 13:10:00,
2013-01-12 08:12:00,54.2,50.7,30.06,NNW,327,0.0,0.0,88,0.00,CLR,SCT,0.00,WeatherDisplay:10.37,2013-01-12 13:12:00,
2013-01-12 08:13:00,54.2,50.7,30.06,NNW,327,0.0,0.0,88,0.00,CLR,SCT,0.00,WeatherDisplay:10.37,2013-01-12 13:13:00,
2013-01-12 08:14:00,54.2,50.7,30.06,NNW,327,0.0,0.0,88,0.00,CLR,SCT,0.00,WeatherDisplay:10.37,2013-01-12 13:14:00,
2013-01-12 08:17:00,54.2,50.7,30.07,NNW,327,3.5,3.5,88,0.00,CLR,SCT,0.00,WeatherDisplay:10.37,2013-01-12 13:17:00,
2013-01-12 08:19:00,54.2,50.7,30.07,NNW,327,2.3,2.3,88,0.00,CLR,SCT,0.00,WeatherDisplay:10.37,2013-01-12 13:19:00,
2013-01-12 08:23:00,54.2,50.7,30.06,NNW,329,0.0,0.0,88,0.00,CLR,SCT,0.00,WeatherDisplay:10.37,2013-01-12 13:23:00,
2013-01-12 08:25:00,54.2,50.7,30.06,NNW,329,0.0,0.0,88,0.00,CLR,SCT,0.00,WeatherDisplay:10.37,2013-01-12 13:25:00,
2013-01-12 08:28:00,54.4,50.9,30.06,NNW,330,0.0,0.0,88,0.00,CLR,SCT,0.00,WeatherDisplay:10.37,2013-01-12 13:28:00,
2013-01-12 08:29:00,54.4,50.9,30.05,NE,42,3.0,0.0,88,0.00,CLR,SCT,0.00,WeatherDisplay:10.37,2013-01-12 13:29:00,
2013-01-12 08:32:00,54.5,51.0,30.05,East,80,2.3,2.3,88,0.00,CLR,SCT,0.00,WeatherDisplay:10.37,2013-01-12 13:32:00,
2013-01-12 08:33:00,54.5,51.0,30.05,East,80,1.1,0.0,88,0.00,CLR,SCT,0.00,WeatherDisplay:10.37,2013-01-12 13:33:00,
2013-01-12 08:36:00,54.5,51.0,30.05,East,80,0.0,0.0,88,0.00,CLR,SCT,0.00,WeatherDisplay:10.37,2013-01-12 13:36:00,
2013-01-12 08:40:00,54.7,51.2,30.05,East,80,0.0,0.0,88,0.00,CLR,SCT,0.00,WeatherDisplay:10.37,2013-01-12 13:40:00,
2013-01-12 08:43:00,55.0,51.8,30.05,East,80,0.0,0.0,89,0.00,CLR,SCT,0.00,WeatherDisplay:10.37,2013-01-12 13:43:00,
2013-01-12 08:45:00,55.1,51.9,30.04,East,80,1.0,1.0,89,0.00,CLR,SCT,0.00,WeatherDisplay:10.37,2013-01-12 13:45:00,
2013-01-12 08:47:00,55.3,52.1,30.05,East,80,2.3,2.3,89,0.00,CLR,SCT,0.00,WeatherDisplay:10.37,2013-01-12 13:47:00,
2013-01-12 08:50:00,55.4,52.2,30.05,East,80,2.3,0.0,89,0.00,CLR,SCT,0.00,WeatherDisplay:10.37,2013-01-12 13:50:00,
2013-01-12 08:55:00,55.9,52.7,30.04,East,80,0.0,0.0,89,0.00,CLR,SCT,0.00,WeatherDisplay:10.37,2013-01-12 13:55:00,
2013-01-12 08:56:00,55.9,52.7,30.04,East,80,0.0,0.0,89,0.00,CLR,SCT,0.00,WeatherDisplay:10.37,2013-01-12 13:56:00,
2013-01-12 08:58:00,56.2,53.0,30.04,East,80,3.5,3.5,89,0.00,CLR,SCT,0.00,WeatherDisplay:10.37,2013-01-12 13:58:00,
2013-01-12 09:01:00,56.3,53.1,30.04,East,80,3.5,3.5,89,0.00,CLR,SCT,0.00,WeatherDisplay:10.37,2013-01-12 14:01:00,
2013-01-12 09:06:00,56.6,53.4,30.03,NE,34,6.9,6.9,89,0.00,CLR,SCT,0.00,WeatherDisplay:10.37,2013-01-12 14:06:00,
2013-01-12 09:07:00,56.6,53.4,30.03,NE,34,7.0,7.0,89,0.00,CLR,SCT,0.00,WeatherDisplay:10.37,2013-01-12 14:07:00,
2013-01-12 09:08:00,56.6,53.4,30.03,NE,34,9.2,9.2,89,0.00,CLR,SCT,0.00,WeatherDisplay:10.37,2013-01-12 14:08:00,
2013-01-12 09:11:00,56.7,53.5,30.03,NE,34,4.6,4.6,89,0.00,CLR,SCT,0.00,WeatherDisplay:10.37,2013-01-12 14:11:00,
2013-01-12 09:14:00,56.7,53.5,30.04,NE,34,4.6,4.6,89,0.00,CLR,SCT,0.00,WeatherDisplay:10.37,2013-01-12 14:14:00,
2013-01-12 09:15:00,56.9,53.7,30.04,NE,34,4.6,4.6,89,0.00,CLR,SCT,0.00,WeatherDisplay:10.37,2013-01-12 14:15:00,
2013-01-12 09:16:00,56.9,53.7,30.04,NE,34,3.5,3.5,89,0.00,CLR,SCT,0.00,WeatherDisplay:10.37,2013-01-12 14:16:00,
2013-01-12 09:20:00,57.0,53.8,30.04,NE,34,2.0,2.3,89,0.00,CLR,SCT,0.00,WeatherDisplay:10.37,2013-01-12 14:20:00,
2013-01-12 09:21:00,57.0,53.8,30.04,NE,34,3.5,3.5,89,0.00,CLR,SCT,0.00,WeatherDisplay:10.37,2013-01-12 14:21:00,
2013-01-12 09:22:00,57.0,53.8,30.04,NE,34,2.3,2.3,89,0.00,CLR,SCT,0.00,WeatherDisplay:10.37,2013-01-12 14:22:00,
2013-01-12 09:27:00,57.3,54.1,30.05,NE,34,0.0,0.0,89,0.00,CLR,SCT,0.00,WeatherDisplay:10.37,2013-01-12 14:27:00,
2013-01-12 09:28:00,57.3,54.1,30.05,NE,34,0.0,0.0,89,0.00,CLR,SCT,0.00,WeatherDisplay:10.37,2013-01-12 14:28:00,
2013-01-12 09:29:00,57.5,54.3,30.05,NE,34,0.0,0.0,89,0.00,CLR,SCT,0.00,WeatherDisplay:10.37,2013-01-12 14:29:00,
2013-01-12 09:32:00,57.8,54.6,30.05,NE,34,0.0,0.0,89,0.00,CLR,SCT,0.00,WeatherDisplay:10.37,2013-01-12 14:32:00,
2013-01-12 09:35:00,58.0,54.8,30.05,NE,34,0.0,0.0,89,0.00,CLR,SCT,0.00,WeatherDisplay:10.37,2013-01-12 14:35:00,
2013-01-12 09:36:00,58.1,54.9,30.04,NE,34,0.0,0.0,89,0.00,CLR,SCT,0.00,WeatherDisplay:10.37,2013-01-12 14:36:00,
2013-01-12 09:37:00,58.1,54.9,30.05,NE,34,0.0,0.0,89,0.00,CLR,SCT,0.00,WeatherDisplay:10.37,2013-01-12 14:37:00,
2013-01-12 09:39:00,58.4,55.2,30.05,NE,34,0.0,0.0,89,0.00,CLR,SCT,0.00,WeatherDisplay:10.37,2013-01-12 14:39:00,
2013-01-12 09:40:00,58.6,55.4,30.05,NE,34,0.0,0.0,89,0.00,CLR,SCT,0.00,WeatherDisplay:10.37,2013-01-12 14:40:00,
2013-01-12 09:42:00,58.9,55.7,30.05,NE,34,0.0,0.0,89,0.00,CLR,SCT,0.00,WeatherDisplay:10.37,2013-01-12 14:42:00,
2013-01-12 09:43:00,59.0,55.8,30.05,NE,34,0.0,0.0,89,0.00,CLR,SCT,0.00,WeatherDisplay:10.37,2013-01-12 14:43:00,
2013-01-12 09:46:00,59.5,56.3,30.05,NE,34,0.0,0.0,89,0.00,CLR,SCT,0.00,WeatherDisplay:10.37,2013-01-12 14:46:00,
2013-01-12 09:48:00,59.8,56.6,30.05,NE,34,0.0,0.0,89,0.00,CLR,SCT,0.00,WeatherDisplay:10.37,2013-01-12 14:48:00,
2013-01-12 09:49:00,59.8,56.6,30.05,NE,34,0.0,0.0,89,0.00,CLR,SCT,0.00,WeatherDisplay:10.37,2013-01-12 14:49:00,
2013-01-12 09:51:00,59.9,56.6,30.05,NE,34,0.0,0.0,89,0.00,CLR,SCT,0.00,WeatherDisplay:10.37,2013-01-12 14:51:00,
2013-01-12 09:53:00,60.1,56.8,30.05,NE,34,0.0,0.0,89,0.00,CLR,SCT,0.00,WeatherDisplay:10.37,2013-01-12 14:53:00,
2013-01-12 09:54:00,60.2,56.9,30.05,NE,34,0.0,0.0,89,0.00,CLR,SCT,0.00,WeatherDisplay:10.37,2013-01-12 14:54:00,
2013-01-12 09:57:00,60.4,57.1,30.06,NE,34,0.0,0.0,89,0.00,CLR,SCT,0.00,WeatherDisplay:10.37,2013-01-12 14:57:00,
2013-01-12 09:58:00,60.4,57.1,30.06,NE,34,0.0,0.0,89,0.00,CLR,SCT,0.00,WeatherDisplay:10.37,2013-01-12 14:58:00,
2013-01-12 09:59:00,60.5,57.2,30.06,NE,34,0.0,0.0,89,0.00,CLR,SCT,0.00,WeatherDisplay:10.37,2013-01-12 14:59:00,
2013-01-12 10:02:00,60.7,57.4,30.07,NE,34,0.0,0.0,89,0.00,CLR,SCT,0.00,WeatherDisplay:10.37,2013-01-12 15:02:00,
2013-01-12 10:03:00,60.7,57.1,30.07,NE,34,0.0,0.0,88,0.00,CLR,SCT,0.00,WeatherDisplay:10.37,2013-01-12 15:03:00,
2013-01-12 10:07:00,61.2,57.6,30.07,NE,50,0.0,0.0,88,0.00,CLR,SCT,0.00,WeatherDisplay:10.37,2013-01-12 15:07:00,
2013-01-12 10:08:00,61.2,57.6,30.07,NE,50,0.0,0.0,88,0.00,CLR,SCT,0.00,WeatherDisplay:10.37,2013-01-12 15:08:00,
2013-01-12 10:09:00,61.2,57.6,30.07,NE,50,0.0,0.0,88,0.00,CLR,SCT,0.00,WeatherDisplay:10.37,2013-01-12 15:09:00,
2013-01-12 10:12:00,61.5,57.9,30.06,NE,50,0.0,0.0,88,0.00,CLR,SCT,0.00,WeatherDisplay:10.37,2013-01-12 15:12:00,
2013-01-12 10:14:00,61.6,58.0,30.06,NE,50,0.0,0.0,88,0.00,CLR,SCT,0.00,WeatherDisplay:10.37,2013-01-12 15:14:00,
2013-01-12 10:15:00,61.8,58.2,30.06,NE,50,0.0,0.0,88,0.00,CLR,SCT,0.00,WeatherDisplay:10.37,2013-01-12 15:15:00,
2013-01-12 10:17:00,62.0,58.4,30.05,NE,50,2.3,2.3,88,0.00,CLR,SCT,0.00,WeatherDisplay:10.37,2013-01-12 15:17:00,
2013-01-12 10:18:00,62.0,58.4,30.05,NE,50,1.1,0.0,88,0.00,CLR,SCT,0.00,WeatherDisplay:10.37,2013-01-12 15:18:00,
2013-01-12 10:22:00,62.1,58.5,30.05,NE,49,0.0,0.0,88,0.00,CLR,SCT,0.00,WeatherDisplay:10.37,2013-01-12 15:22:00,
2013-01-12 10:23:00,62.1,58.5,30.05,NE,49,0.0,0.0,88,0.00,CLR,SCT,0.00,WeatherDisplay:10.37,2013-01-12 15:23:00,
2013-01-12 10:24:00,62.3,58.7,30.05,NE,49,0.0,0.0,88,0.00,CLR,SCT,0.00,WeatherDisplay:10.37,2013-01-12 15:24:00,
2013-01-12 10:27:00,62.4,58.8,30.05,NE,49,0.0,0.0,88,0.00,CLR,SCT,0.00,WeatherDisplay:10.37,2013-01-12 15:27:00,
2013-01-12 10:28:00,62.4,58.8,30.05,NE,49,0.0,0.0,88,0.00,CLR,SCT,0.00,WeatherDisplay:10.37,2013-01-12 15:28:00,
2013-01-12 10:29:00,62.6,59.0,30.05,NE,49,0.0,0.0,88,0.00,CLR,SCT,0.00,WeatherDisplay:10.37,2013-01-12 15:29:00,
2013-01-12 10:32:00,62.9,59.3,30.05,NE,49,0.0,0.0,88,0.00,CLR,SCT,0.00,WeatherDisplay:10.37,2013-01-12 15:32:00,
2013-01-12 10:34:00,63.1,59.5,30.05,NE,49,0.0,0.0,88,0.00,CLR,SCT,0.00,WeatherDisplay:10.37,2013-01-12 15:34:00,
2013-01-12 10:38:00,63.5,59.9,30.05,NE,49,1.1,0.0,88,0.00,CLR,SCT,0.00,WeatherDisplay:10.37,2013-01-12 15:38:00,
2013-01-12 10:39:00,63.7,60.1,30.05,NE,49,0.0,0.0,88,0.00,CLR,SCT,0.00,WeatherDisplay:10.37,2013-01-12 15:39:00,
2013-01-12 10:40:00,63.7,60.1,30.05,NE,49,2.3,2.3,88,0.00,CLR,SCT,0.00,WeatherDisplay:10.37,2013-01-12 15:40:00,
2013-01-12 10:44:00,64.2,60.6,30.05,SSE,168,0.0,0.0,88,0.00,CLR,SCT,0.00,WeatherDisplay:10.37,2013-01-12 15:44:00,
2013-01-12 10:45:00,64.2,60.6,30.05,SSE,168,0.0,0.0,88,0.00,CLR,SCT,0.00,WeatherDisplay:10.37,2013-01-12 15:45:00,
2013-01-12 10:46:00,64.3,60.7,30.05,SSE,168,0.0,0.0,88,0.00,CLR,SCT,0.00,WeatherDisplay:10.37,2013-01-12 15:46:00,
2013-01-12 10:50:00,64.7,60.7,30.04,South,169,5.8,5.8,87,0.00,CLR,SCT,0.00,WeatherDisplay:10.37,2013-01-12 15:50:00,
2013-01-12 10:51:00,64.8,60.8,30.04,South,169,2.3,0.0,87,0.00,CLR,SCT,0.00,WeatherDisplay:10.37,2013-01-12 15:51:00,
2013-01-12 10:53:00,64.8,60.8,30.04,South,169,0.0,0.0,87,0.00,CLR,SCT,0.00,WeatherDisplay:10.37,2013-01-12 15:53:00,
2013-01-12 10:54:00,65.0,61.0,30.04,South,169,0.0,0.0,87,0.00,CLR,SCT,0.00,WeatherDisplay:10.37,2013-01-12 15:54:00,
2013-01-12 10:56:00,65.0,61.0,30.04,South,169,2.3,2.3,87,0.00,CLR,SCT,0.00,WeatherDisplay:10.37,2013-01-12 15:56:00,
2013-01-12 11:00:00,65.2,61.2,30.04,South,169,1.1,0.0,87,0.00,CLR,SCT,0.00,WeatherDisplay:10.37,2013-01-12 16:00:00,
2013-01-12 11:02:00,65.3,61.0,30.04,South,169,2.3,2.3,86,0.00,CLR,SCT,0.00,WeatherDisplay:10.37,2013-01-12 16:02:00,
2013-01-12 11:06:00,65.3,61.0,30.03,South,169,3.0,3.0,86,0.00,CLR,SCT,0.00,WeatherDisplay:10.37,2013-01-12 16:06:00,
2013-01-12 11:07:00,65.5,61.2,30.03,South,169,3.5,3.5,86,0.00,CLR,SCT,0.00,WeatherDisplay:10.37,2013-01-12 16:07:00,
2013-01-12 11:09:00,65.5,61.9,30.03,South,169,3.5,3.5,88,0.00,CLR,SCT,0.00,WeatherDisplay:10.37,2013-01-12 16:09:00,
2013-01-12 11:10:00,65.5,61.2,30.03,South,169,3.5,3.5,86,0.00,CLR,SCT,0.00,WeatherDisplay:10.37,2013-01-12 16:10:00,
2013-01-12 11:12:00,65.5,61.2,30.03,South,169,0.0,0.0,86,0.00,CLR,SCT,0.00,WeatherDisplay:10.37,2013-01-12 16:12:00,
2013-01-12 11:14:00,65.5,61.2,30.02,South,169,0.0,0.0,86,0.00,CLR,SCT,0.00,WeatherDisplay:10.37,2013-01-12 16:14:00,
2013-01-12 11:15:00,65.5,61.2,30.02,South,169,0.0,0.0,86,0.00,CLR,SCT,0.00,WeatherDisplay:10.37,2013-01-12 16:15:00,
2013-01-12 11:18:00,65.6,61.3,30.02,South,169,0.0,0.0,86,0.00,CLR,SCT,0.00,WeatherDisplay:10.37,2013-01-12 16:18:00,
2013-01-12 11:19:00,65.6,61.3,30.02,South,169,0.0,0.0,86,0.00,CLR,SCT,0.00,WeatherDisplay:10.37,2013-01-12 16:19:00,
2013-01-12 11:20:00,65.6,61.3,30.02,South,169,0.0,0.0,86,0.00,CLR,SCT,0.00,WeatherDisplay:10.37,2013-01-12 16:20:00,
2013-01-12 11:21:00,65.8,61.5,30.02,South,169,0.0,0.0,86,0.00,CLR,SCT,0.00,WeatherDisplay:10.37,2013-01-12 16:21:00,
2013-01-12 11:24:00,65.8,61.2,30.02,South,169,1.1,0.0,85,0.00,CLR,SCT,0.00,WeatherDisplay:10.37,2013-01-12 16:24:00,
2013-01-12 11:26:00,66.0,61.4,30.01,South,169,0.0,0.0,85,0.00,CLR,SCT,0.00,WeatherDisplay:10.37,2013-01-12 16:26:00,
2013-01-12 11:28:00,66.0,61.4,30.01,South,169,0.0,0.0,85,0.00,CLR,SCT,0.00,WeatherDisplay:10.37,2013-01-12 16:28:00,
2013-01-12 11:31:00,66.1,61.5,30.01,South,169,0.0,0.0,85,0.00,CLR,SCT,0.00,WeatherDisplay:10.37,2013-01-12 16:31:00,
2013-01-12 11:33:00,66.1,61.5,30.01,South,169,0.0,0.0,85,0.00,CLR,SCT,0.00,WeatherDisplay:10.37,2013-01-12 16:33:00,
2013-01-12 11:34:00,66.3,61.7,30.01,South,169,0.0,0.0,85,0.00,CLR,SCT,0.00,WeatherDisplay:10.37,2013-01-12 16:34:00,
2013-01-12 11:35:00,66.3,61.7,30.01,South,169,0.0,0.0,85,0.00,CLR,SCT,0.00,WeatherDisplay:10.37,2013-01-12 16:35:00,
2013-01-12 11:39:00,66.4,61.8,30.01,South,169,0.0,0.0,85,0.00,CLR,SCT,0.00,WeatherDisplay:10.37,2013-01-12 16:39:00,
2013-01-12 11:40:00,66.4,61.8,30.01,South,169,0.0,0.0,85,0.00,CLR,SCT,0.00,WeatherDisplay:10.37,2013-01-12 16:40:00,
2013-01-12 11:42:00,66.6,61.9,30.00,South,169,0.0,0.0,85,0.00,CLR,SCT,0.00,WeatherDisplay:10.37,2013-01-12 16:42:00,
2013-01-12 11:43:00,66.6,61.9,30.00,South,169,0.0,0.0,85,0.00,CLR,SCT,0.00,WeatherDisplay:10.37,2013-01-12 16:43:00,
2013-01-12 11:47:00,66.6,61.6,30.00,South,169,2.3,2.3,84,0.00,CLR,SCT,0.00,WeatherDisplay:10.37,2013-01-12 16:47:00,
2013-01-12 11:48:00,66.8,61.8,30.00,South,169,2.3,0.0,84,0.00,CLR,SCT,0.00,WeatherDisplay:10.37,2013-01-12 16:48:00,
2013-01-12 11:50:00,66.8,61.8,30.00,South,169,0.0,0.0,84,0.00,CLR,SCT,0.00,WeatherDisplay:10.37,2013-01-12 16:50:00,
2013-01-12 11:53:00,66.8,61.8,30.00,South,169,0.0,0.0,84,0.00,CLR,SCT,0.00,WeatherDisplay:10.37,2013-01-12 16:53:00,
2013-01-12 11:54:00,66.8,61.8,30.00,South,169,0.0,0.0,84,0.00,CLR,SCT,0.00,WeatherDisplay:10.37,2013-01-12 16:54:00,
2013-01-12 11:56:00,66.9,61.9,30.00,South,169,0.0,0.0,84,0.00,CLR,SCT,0.00,WeatherDisplay:10.37,2013-01-12 16:56:00,
2013-01-12 11:59:00,66.9,61.9,30.00,ESE,111,3.5,3.5,84,0.00,CLR,SCT,0.00,WeatherDisplay:10.37,2013-01-12 16:59:00,
2013-01-12 12:02:00,66.9,61.9,30.00,ESE,111,0.0,0.0,84,0.00,CLR,SCT,0.00,WeatherDisplay:10.37,2013-01-12 17:02:00,
2013-01-12 12:04:00,67.1,62.1,29.99,ESE,111,0.0,0.0,84,0.00,,SCT,0.00,WeatherDisplay:10.37,2013-01-12 17:04:00,
2013-01-12 12:05:00,67.1,62.1,29.99,ESE,111,0.0,0.0,84,0.00,,SCT,0.00,WeatherDisplay:10.37,2013-01-12 17:05:00,
2013-01-12 12:07:00,67.1,62.1,29.99,ESE,111,0.0,0.0,84,0.00,,SCT,0.00,WeatherDisplay:10.37,2013-01-12 17:07:00,
2013-01-12 12:09:00,67.1,62.1,29.99,ESE,111,0.0,0.0,84,0.00,,SCT,0.00,WeatherDisplay:10.37,2013-01-12 17:09:00,
2013-01-12 12:11:00,67.1,62.1,29.99,ESE,111,1.1,1.1,84,0.00,,SCT,0.00,WeatherDisplay:10.37,2013-01-12 17:11:00,
2013-01-12 12:12:00,67.3,62.3,29.99,ESE,111,0.0,0.0,84,0.00,,SCT,0.00,WeatherDisplay:10.37,2013-01-12 17:12:00,
2013-01-12 12:16:00,67.3,62.3,30.00,ESE,111,0.0,0.0,84,0.00,,SCT,0.00,WeatherDisplay:10.37,2013-01-12 17:16:00,
2013-01-12 12:18:00,67.4,62.4,30.00,ESE,111,0.0,0.0,84,0.00,,SCT,0.00,WeatherDisplay:10.37,2013-01-12 17:18:00,
2013-01-12 12:19:00,67.4,62.4,30.00,ESE,111,0.0,0.0,84,0.00,,SCT,0.00,WeatherDisplay:10.37,2013-01-12 17:19:00,
2013-01-12 12:23:00,67.6,62.3,29.99,ESE,111,0.0,0.0,83,0.00,,SCT,0.00,WeatherDisplay:10.37,2013-01-12 17:23:00,
2013-01-12 12:24:00,67.6,62.3,29.99,ESE,111,0.0,0.0,83,0.00,,SCT,0.00,WeatherDisplay:10.37,2013-01-12 17:24:00,
2013-01-12 12:26:00,67.6,62.3,29.99,ESE,111,0.0,0.0,83,0.00,,SCT,0.00,WeatherDisplay:10.37,2013-01-12 17:26:00,
2013-01-12 12:28:00,67.8,62.4,29.99,ESE,111,0.0,0.0,83,0.00,,SCT,0.00,WeatherDisplay:10.37,2013-01-12 17:28:00,
2013-01-12 12:31:00,67.8,62.4,29.99,ESE,111,0.0,0.0,83,0.00,,SCT,0.00,WeatherDisplay:10.37,2013-01-12 17:31:00,
2013-01-12 12:32:00,67.9,62.5,29.99,ESE,111,0.0,0.0,83,0.00,,SCT,0.00,WeatherDisplay:10.37,2013-01-12 17:32:00,
2013-01-12 12:33:00,67.9,62.5,29.99,ESE,111,0.0,0.0,83,0.00,,SCT,0.00,WeatherDisplay:10.37,2013-01-12 17:33:00,
2013-01-12 12:36:00,68.1,62.7,29.99,ESE,111,0.0,0.0,83,0.00,,SCT,0.00,WeatherDisplay:10.37,2013-01-12 17:36:00,
2013-01-12 12:39:00,68.1,62.7,29.99,ESE,111,0.0,0.0,83,0.00,,SCT,0.00,WeatherDisplay:10.37,2013-01-12 17:39:00,
2013-01-12 12:41:00,68.1,62.7,29.99,ESE,111,0.0,0.0,83,0.00,,SCT,0.00,WeatherDisplay:10.37,2013-01-12 17:41:00,
2013-01-12 12:43:00,68.1,62.7,29.99,ESE,111,0.0,0.0,83,0.00,,SCT,0.00,WeatherDisplay:10.37,2013-01-12 17:43:00,
2013-01-12 12:47:00,68.1,62.4,29.98,ESE,111,0.0,0.0,82,0.00,,SCT,0.00,WeatherDisplay:10.37,2013-01-12 17:47:00,
2013-01-12 12:48:00,68.1,62.7,29.99,ESE,111,0.0,0.0,83,0.00,,SCT,0.00,WeatherDisplay:10.37,2013-01-12 17:48:00,
2013-01-12 12:51:00,68.1,62.4,29.99,ESE,111,2.3,0.0,82,0.00,,SCT,0.00,WeatherDisplay:10.37,2013-01-12 17:51:00,
2013-01-12 12:53:00,68.1,62.4,29.99,ESE,111,0.0,0.0,82,0.00,,SCT,0.00,WeatherDisplay:10.37,2013-01-12 17:53:00,
2013-01-12 12:54:00,68.1,62.4,29.98,ESE,111,0.0,0.0,82,0.00,,SCT,0.00,WeatherDisplay:10.37,2013-01-12 17:54:00,
2013-01-12 12:57:00,68.1,62.4,29.98,ESE,111,0.0,0.0,82,0.00,,SCT,0.00,WeatherDisplay:10.37,2013-01-12 17:57:00,
2013-01-12 12:58:00,68.1,62.4,29.98,ESE,111,0.0,0.0,82,0.00,,SCT,0.00,WeatherDisplay:10.37,2013-01-12 17:58:00,
2013-01-12 12:59:00,68.1,62.4,29.98,ESE,111,0.0,0.0,82,0.00,,SCT,0.00,WeatherDisplay:10.37,2013-01-12 17:59:00,
2013-01-12 13:01:00,68.1,62.4,29.98,ESE,111,0.0,0.0,82,0.00,,SCT,0.00,WeatherDisplay:10.37,2013-01-12 18:01:00,
2013-01-12 13:02:00,68.1,62.4,29.97,ESE,111,0.0,0.0,82,0.00,,SCT,0.00,WeatherDisplay:10.37,2013-01-12 18:02:00,
2013-01-12 13:05:00,68.1,62.4,29.96,ESE,111,0.0,0.0,82,0.00,,SCT,0.00,WeatherDisplay:10.37,2013-01-12 18:05:00,
2013-01-12 13:07:00,68.1,62.4,29.96,ESE,111,0.0,0.0,82,0.00,,SCT,0.00,WeatherDisplay:10.37,2013-01-12 18:07:00,
2013-01-12 13:09:00,68.1,62.4,29.97,ESE,111,0.0,0.0,82,0.00,,SCT,0.00,WeatherDisplay:10.37,2013-01-12 18:09:00,
2013-01-12 13:10:00,68.1,62.4,29.97,ESE,111,2.0,2.0,82,0.00,,SCT,0.00,WeatherDisplay:10.37,2013-01-12 18:10:00,
2013-01-12 13:14:00,68.1,62.0,29.96,ESE,111,0.0,0.0,81,0.00,,SCT,0.00,WeatherDisplay:10.37,2013-01-12 18:14:00,
2013-01-12 13:15:00,67.9,62.2,29.96,ESE,111,0.0,0.0,82,0.00,,SCT,0.00,WeatherDisplay:10.37,2013-01-12 18:15:00,
2013-01-12 13:17:00,67.9,62.2,29.97,ESE,111,2.3,2.3,82,0.00,,SCT,0.00,WeatherDisplay:10.37,2013-01-12 18:17:00,
2013-01-12 13:18:00,67.9,61.9,29.97,ESE,111,2.3,2.3,81,0.00,,SCT,0.00,WeatherDisplay:10.37,2013-01-12 18:18:00,
2013-01-12 13:19:00,67.9,61.9,29.97,ESE,111,0.0,0.0,81,0.00,,SCT,0.00,WeatherDisplay:10.37,2013-01-12 18:19:00,
2013-01-12 13:23:00,67.9,61.9,29.96,ESE,111,3.5,3.5,81,0.00,,SCT,0.00,WeatherDisplay:10.37,2013-01-12 18:23:00,
2013-01-12 13:24:00,67.9,61.9,29.96,ESE,111,1.1,0.0,81,0.00,,SCT,0.00,WeatherDisplay:10.37,2013-01-12 18:24:00,
2013-01-12 13:28:00,67.9,61.9,29.96,ESE,111,0.0,0.0,81,0.00,,SCT,0.00,WeatherDisplay:10.37,2013-01-12 18:28:00,
2013-01-12 13:31:00,67.9,61.9,29.96,ESE,111,0.0,0.0,81,0.00,,SCT,0.00,WeatherDisplay:10.37,2013-01-12 18:31:00,
2013-01-12 13:34:00,67.9,61.9,29.96,ESE,111,0.0,0.0,81,0.00,,SCT,0.00,WeatherDisplay:10.37,2013-01-12 18:34:00,
2013-01-12 13:35:00,67.9,61.9,29.96,ESE,111,0.0,0.0,81,0.00,,SCT,0.00,WeatherDisplay:10.37,2013-01-12 18:35:00,
2013-01-12 13:36:00,67.9,61.9,29.96,ESE,111,0.0,0.0,81,0.00,,SCT,0.00,WeatherDisplay:10.37,2013-01-12 18:36:00,
2013-01-12 13:39:00,67.9,61.9,29.97,ESE,111,0.0,0.0,81,0.00,,SCT,0.00,WeatherDisplay:10.37,2013-01-12 18:39:00,
2013-01-12 13:40:00,67.9,61.9,29.97,ESE,111,0.0,0.0,81,0.00,,SCT,0.00,WeatherDisplay:10.37,2013-01-12 18:40:00,
2013-01-12 13:41:00,67.9,61.9,29.97,ESE,111,0.0,0.0,81,0.00,,SCT,0.00,WeatherDisplay:10.37,2013-01-12 18:41:00,
2013-01-12 13:45:00,67.9,61.9,29.96,ESE,111,2.3,2.3,81,0.00,,SCT,0.00,WeatherDisplay:10.37,2013-01-12 18:45:00,
2013-01-12 13:47:00,68.1,62.0,29.96,ESE,111,3.5,3.5,81,0.00,,SCT,0.00,WeatherDisplay:10.37,2013-01-12 18:47:00,
2013-01-12 13:48:00,68.1,62.0,29.96,ESE,111,2.3,2.3,81,0.00,,SCT,0.00,WeatherDisplay:10.37,2013-01-12 18:48:00,
2013-01-12 13:50:00,68.1,61.7,29.96,ESE,111,2.3,2.3,80,0.00,,SCT,0.00,WeatherDisplay:10.37,2013-01-12 18:50:00,
2013-01-12 13:53:00,68.1,61.7,29.96,ESE,111,2.3,2.3,80,0.00,,SCT,0.00,WeatherDisplay:10.37,2013-01-12 18:53:00,
2013-01-12 13:55:00,68.1,61.7,29.96,ESE,111,3.0,3.0,80,0.00,,SCT,0.00,WeatherDisplay:10.37,2013-01-12 18:55:00,
2013-01-12 13:58:00,68.1,61.7,29.96,ESE,111,2.3,0.0,80,0.00,,SCT,0.00,WeatherDisplay:10.37,2013-01-12 18:58:00,
2013-01-12 14:00:00,68.1,61.7,29.95,ESE,111,4.0,4.0,80,0.00,,SCT,0.00,WeatherDisplay:10.37,2013-01-12 19:00:00,
2013-01-12 14:01:00,68.1,61.7,29.95,ESE,111,5.0,5.0,80,0.00,,SCT,0.00,WeatherDisplay:10.37,2013-01-12 19:01:00,
2013-01-12 14:03:00,68.1,61.7,29.95,ESE,111,3.5,3.5,80,0.00,,SCT,0.00,WeatherDisplay:10.37,2013-01-12 19:03:00,
2013-01-12 14:04:00,68.3,61.9,29.95,ESE,111,3.5,3.5,80,0.00,,SCT,0.00,WeatherDisplay:10.37,2013-01-12 19:04:00,
2013-01-12 14:07:00,68.3,61.9,29.95,ESE,111,4.6,4.6,80,0.00,,SCT,0.00,WeatherDisplay:10.37,2013-01-12 19:07:00,
2013-01-12 14:08:00,68.3,61.5,29.95,ESE,111,2.3,2.3,79,0.00,,SCT,0.00,WeatherDisplay:10.37,2013-01-12 19:08:00,
2013-01-12 14:09:00,68.3,61.9,29.95,ESE,111,3.0,3.0,80,0.00,,SCT,0.00,WeatherDisplay:10.37,2013-01-12 19:09:00,
2013-01-12 14:12:00,68.4,61.6,29.95,ESE,111,3.5,3.5,79,0.00,,SCT,0.00,WeatherDisplay:10.37,2013-01-12 19:12:00,
2013-01-12 14:13:00,68.4,61.6,29.95,ESE,111,2.3,2.3,79,0.00,,SCT,0.00,WeatherDisplay:10.37,2013-01-12 19:13:00,
2013-01-12 14:14:00,68.4,61.6,29.95,ESE,111,2.3,2.3,79,0.00,,SCT,0.00,WeatherDisplay:10.37,2013-01-12 19:14:00,
2013-01-12 14:18:00,68.4,61.6,29.95,ESE,111,0.0,0.0,79,0.00,,SCT,0.00,WeatherDisplay:10.37,2013-01-12 19:18:00,
2013-01-12 14:19:00,68.6,61.8,29.95,ESE,111,2.3,2.3,79,0.00,,SCT,0.00,WeatherDisplay:10.37,2013-01-12 19:19:00,
2013-01-12 14:20:00,68.6,61.8,29.95,ESE,111,3.5,3.5,79,0.00,,SCT,0.00,WeatherDisplay:10.37,2013-01-12 19:20:00,
2013-01-12 14:23:00,68.6,61.8,29.95,ESE,111,0.0,0.0,79,0.00,,SCT,0.00,WeatherDisplay:10.37,2013-01-12 19:23:00,
2013-01-12 14:24:00,68.6,61.8,29.95,ESE,111,0.0,0.0,79,0.00,,SCT,0.00,WeatherDisplay:10.37,2013-01-12 19:24:00,
2013-01-12 14:27:00,68.8,62.0,29.95,ESE,111,0.0,0.0,79,0.00,,SCT,0.00,WeatherDisplay:10.37,2013-01-12 19:27:00,
2013-01-12 14:29:00,68.8,62.0,29.95,ESE,111,0.0,0.0,79,0.00,,SCT,0.00,WeatherDisplay:10.37,2013-01-12 19:29:00,
2013-01-12 14:33:00,68.9,62.1,29.95,ESE,111,2.3,0.0,79,0.00,,SCT,0.00,WeatherDisplay:10.37,2013-01-12 19:33:00,
2013-01-12 14:34:00,68.9,62.1,29.95,ESE,111,3.5,3.5,79,0.00,,SCT,0.00,WeatherDisplay:10.37,2013-01-12 19:34:00,
2013-01-12 14:38:00,69.1,62.3,29.94,ESE,111,2.0,2.0,79,0.00,,SCT,0.00,WeatherDisplay:10.37,2013-01-12 19:38:00,
2013-01-12 14:40:00,69.1,61.9,29.94,ESE,111,3.0,3.0,78,0.00,,SCT,0.00,WeatherDisplay:10.37,2013-01-12 19:40:00,
2013-01-12 14:43:00,69.3,62.1,29.94,ESE,111,3.5,3.5,78,0.00,,SCT,0.00,WeatherDisplay:10.37,2013-01-12 19:43:00,
2013-01-12 14:46:00,69.4,62.2,29.94,ESE,111,2.3,0.0,78,0.00,,SCT,0.00,WeatherDisplay:10.37,2013-01-12 19:46:00,
2013-01-12 14:48:00,69.6,62.4,29.94,ESE,111,3.5,3.5,78,0.00,,SCT,0.00,WeatherDisplay:10.37,2013-01-12 19:48:00,
2013-01-12 14:53:00,69.8,62.6,29.94,ESE,111,3.5,3.5,78,0.00,,SCT,0.00,WeatherDisplay:10.37,2013-01-12 19:53:00,
2013-01-12 14:54:00,69.8,62.6,29.94,ESE,111,0.0,0.0,78,0.00,,SCT,0.00,WeatherDisplay:10.37,2013-01-12 19:54:00,
2013-01-12 14:59:00,69.8,62.3,29.94,ESE,111,3.5,3.5,77,0.00,,SCT,0.00,WeatherDisplay:10.37,2013-01-12 19:59:00,
2013-01-12 15:00:00,69.8,62.3,29.93,ESE,111,2.3,2.3,77,0.00,,SCT,0.00,WeatherDisplay:10.37,2013-01-12 20:00:00,
2013-01-12 15:04:00,69.8,62.6,29.93,ESE,111,3.5,3.5,78,0.00,,SCT,0.00,WeatherDisplay:10.37,2013-01-12 20:04:00,
2013-01-12 15:06:00,69.9,62.4,29.93,ESE,111,4.0,4.0,77,0.00,,SCT,0.00,WeatherDisplay:10.37,2013-01-12 20:06:00,
2013-01-12 15:10:00,69.9,62.4,29.93,ESE,111,3.5,3.5,77,0.00,,SCT,0.00,WeatherDisplay:10.37,2013-01-12 20:10:00,
2013-01-12 15:14:00,70.1,62.6,29.94,ESE,111,4.0,4.0,77,0.00,,SCT,0.00,WeatherDisplay:10.37,2013-01-12 20:14:00,
2013-01-12 15:19:00,70.1,62.6,29.94,ESE,111,0.0,0.0,77,0.00,,SCT,0.00,WeatherDisplay:10.37,2013-01-12 20:19:00,
2013-01-12 15:20:00,70.1,62.6,29.93,ESE,111,1.0,0.0,77,0.00,,SCT,0.00,WeatherDisplay:10.37,2013-01-12 20:20:00,
2013-01-12 15:21:00,70.1,62.6,29.93,ESE,111,1.1,0.0,77,0.00,,SCT,0.00,WeatherDisplay:10.37,2013-01-12 20:21:00,
2013-01-12 15:25:00,70.1,62.6,29.93,ESE,111,0.0,0.0,77,0.00,,SCT,0.00,WeatherDisplay:10.37,2013-01-12 20:25:00,
2013-01-12 15:26:00,70.1,62.6,29.93,ESE,111,0.0,0.0,77,0.00,,SCT,0.00,WeatherDisplay:10.37,2013-01-12 20:26:00,
2013-01-12 15:28:00,70.1,62.6,29.93,ESE,111,3.5,3.5,77,0.00,,SCT,0.00,WeatherDisplay:10.37,2013-01-12 20:28:00,
2013-01-12 15:30:00,70.1,62.6,29.93,ESE,111,3.5,3.5,77,0.00,,SCT,0.00,WeatherDisplay:10.37,2013-01-12 20:30:00,
2013-01-12 15:33:00,70.1,62.6,29.93,ESE,111,2.3,2.3,77,0.00,,SCT,0.00,WeatherDisplay:10.37,2013-01-12 20:33:00,
2013-01-12 15:36:00,70.3,62.7,29.93,ESE,111,3.5,3.5,77,0.00,,SCT,0.00,WeatherDisplay:10.37,2013-01-12 20:36:00,
2013-01-12 15:38:00,70.3,62.7,29.93,ESE,111,4.6,4.6,77,0.00,,SCT,0.00,WeatherDisplay:10.37,2013-01-12 20:38:00,
2013-01-12 15:39:00,70.3,62.7,29.93,ESE,111,1.0,0.0,77,0.00,,SCT,0.00,WeatherDisplay:10.37,2013-01-12 20:39:00,
2013-01-12 15:40:00,70.3,62.7,29.93,ESE,111,3.0,3.0,77,0.00,,SCT,0.00,WeatherDisplay:10.37,2013-01-12 20:40:00,
2013-01-12 15:43:00,70.4,62.8,29.93,ESE,108,0.0,0.0,77,0.00,,SCT,0.00,WeatherDisplay:10.37,2013-01-12 20:43:00,
2013-01-12 15:44:00,70.4,62.5,29.93,ESE,108,3.5,3.5,76,0.00,,SCT,0.00,WeatherDisplay:10.37,2013-01-12 20:44:00,
2013-01-12 15:48:00,70.6,62.7,29.93,East,94,3.5,3.5,76,0.00,,SCT,0.00,WeatherDisplay:10.37,2013-01-12 20:48:00,
2013-01-12 15:54:00,70.9,63.0,29.93,East,94,0.0,0.0,76,0.00,,SCT,0.00,WeatherDisplay:10.37,2013-01-12 20:54:00,
2013-01-12 15:56:00,70.9,63.0,29.93,East,94,0.0,0.0,76,0.00,,SCT,0.00,WeatherDisplay:10.37,2013-01-12 20:56:00,
2013-01-12 15:57:00,70.9,63.0,29.93,East,94,0.0,0.0,76,0.00,,SCT,0.00,WeatherDisplay:10.37,2013-01-12 20:57:00,
2013-01-12 15:59:00,71.1,63.1,29.93,East,94,3.5,0.0,76,0.00,,SCT,0.00,WeatherDisplay:10.37,2013-01-12 20:59:00,
2013-01-12 16:00:00,71.1,63.1,29.93,East,94,0.0,0.0,76,0.00,,SCT,0.00,WeatherDisplay:10.37,2013-01-12 21:00:00,
2013-01-12 16:05:00,71.1,63.1,29.93,East,94,0.0,0.0,76,0.00,CLR,SCT,0.00,WeatherDisplay:10.37,2013-01-12 21:05:00,
2013-01-12 16:06:00,71.1,63.1,29.93,East,94,0.0,0.0,76,0.00,CLR,SCT,0.00,WeatherDisplay:10.37,2013-01-12 21:06:00,
2013-01-12 16:10:00,70.9,63.0,29.93,East,93,0.0,0.0,76,0.00,CLR,SCT,0.00,WeatherDisplay:10.37,2013-01-12 21:10:00,
2013-01-12 16:11:00,70.9,63.0,29.93,East,94,0.0,0.0,76,0.00,CLR,SCT,0.00,WeatherDisplay:10.37,2013-01-12 21:11:00,
2013-01-12 16:16:00,70.9,62.6,29.93,East,94,0.0,0.0,75,0.00,CLR,SCT,0.00,WeatherDisplay:10.37,2013-01-12 21:16:00,
2013-01-12 16:17:00,70.8,62.9,29.93,East,94,0.0,0.0,76,0.00,CLR,SCT,0.00,WeatherDisplay:10.37,2013-01-12 21:17:00,
2013-01-12 16:18:00,70.8,62.5,29.93,East,94,1.1,1.1,75,0.00,CLR,SCT,0.00,WeatherDisplay:10.37,2013-01-12 21:18:00,
2013-01-12 16:21:00,70.8,62.5,29.93,East,94,0.0,0.0,75,0.00,CLR,SCT,0.00,WeatherDisplay:10.37,2013-01-12 21:21:00,
2013-01-12 16:24:00,70.8,62.5,29.93,East,94,0.0,0.0,75,0.00,CLR,SCT,0.00,WeatherDisplay:10.37,2013-01-12 21:24:00,
2013-01-12 16:26:00,70.8,62.5,29.93,East,94,0.0,0.0,75,0.00,CLR,SCT,0.00,WeatherDisplay:10.37,2013-01-12 21:26:00,
2013-01-12 16:30:00,70.8,62.5,29.93,East,94,0.0,0.0,75,0.00,CLR,SCT,0.00,WeatherDisplay:10.37,2013-01-12 21:30:00,
2013-01-12 16:31:00,70.8,62.5,29.93,East,94,0.0,0.0,75,0.00,CLR,SCT,0.00,WeatherDisplay:10.37,2013-01-12 21:31:00,
2013-01-12 16:32:00,70.8,62.5,29.93,East,94,0.0,0.0,75,0.00,CLR,SCT,0.00,WeatherDisplay:10.37,2013-01-12 21:32:00,
2013-01-12 16:33:00,70.6,62.3,29.93,East,94,0.0,0.0,75,0.00,CLR,SCT,0.00,WeatherDisplay:10.37,2013-01-12 21:33:00,
2013-01-12 16:38:00,70.6,62.3,29.93,East,94,0.0,0.0,75,0.00,CLR,SCT,0.00,WeatherDisplay:10.37,2013-01-12 21:38:00,
2013-01-12 16:43:00,70.4,62.1,29.94,ESE,105,0.0,0.0,75,0.00,CLR,SCT,0.00,WeatherDisplay:10.37,2013-01-12 21:43:00,
2013-01-12 16:44:00,70.3,62.0,29.94,ESE,105,0.0,0.0,75,0.00,CLR,SCT,0.00,WeatherDisplay:10.37,2013-01-12 21:44:00,
2013-01-12 16:47:00,70.3,62.0,29.93,ESE,105,0.0,0.0,75,0.00,CLR,SCT,0.00,WeatherDisplay:10.37,2013-01-12 21:47:00,
2013-01-12 16:49:00,70.1,61.8,29.93,ESE,105,0.0,0.0,75,0.00,CLR,SCT,0.00,WeatherDisplay:10.37,2013-01-12 21:49:00,
2013-01-12 16:53:00,69.9,61.6,29.93,ESE,105,0.0,0.0,75,0.00,CLR,SCT,0.00,WeatherDisplay:10.37,2013-01-12 21:53:00,
2013-01-12 16:54:00,69.9,61.6,29.93,ESE,105,0.0,0.0,75,0.00,CLR,SCT,0.00,WeatherDisplay:10.37,2013-01-12 21:54:00,
2013-01-12 16:59:00,69.6,61.7,29.93,ESE,105,0.0,0.0,76,0.00,CLR,SCT,0.00,WeatherDisplay:10.37,2013-01-12 21:59:00,
2013-01-12 17:01:00,69.4,61.5,29.93,ESE,105,0.0,0.0,76,0.00,CLR,SCT,0.00,WeatherDisplay:10.37,2013-01-12 22:01:00,
2013-01-12 17:02:00,69.4,61.5,29.93,ESE,105,0.0,0.0,76,0.00,CLR,SCT,0.00,WeatherDisplay:10.37,2013-01-12 22:02:00,
2013-01-12 17:04:00,69.1,61.2,29.93,ESE,105,0.0,0.0,76,0.00,CLR,SCT,0.00,WeatherDisplay:10.37,2013-01-12 22:04:00,
2013-01-12 17:07:00,68.9,61.0,29.93,ESE,105,0.0,0.0,76,0.00,CLR,SCT,0.00,WeatherDisplay:10.37,2013-01-12 22:07:00,
2013-01-12 17:08:00,68.9,61.0,29.93,ESE,105,0.0,0.0,76,0.00,CLR,SCT,0.00,WeatherDisplay:10.37,2013-01-12 22:08:00,
2013-01-12 17:10:00,68.6,60.7,29.93,ESE,105,0.0,0.0,76,0.00,CLR,SCT,0.00,WeatherDisplay:10.37,2013-01-12 22:10:00,
2013-01-12 17:15:00,68.1,60.2,29.93,ESE,105,0.0,0.0,76,0.00,CLR,SCT,0.00,WeatherDisplay:10.37,2013-01-12 22:15:00,
2013-01-12 17:17:00,67.8,60.0,29.93,ESE,105,0.0,0.0,76,0.00,CLR,SCT,0.00,WeatherDisplay:10.37,2013-01-12 22:17:00,
2013-01-12 17:20:00,67.3,59.5,29.93,ESE,105,0.0,0.0,76,0.00,CLR,SCT,0.00,WeatherDisplay:10.37,2013-01-12 22:20:00,
2013-01-12 17:25:00,66.4,59.0,29.93,ESE,105,0.0,0.0,77,0.00,CLR,SCT,0.00,WeatherDisplay:10.37,2013-01-12 22:25:00,
2013-01-12 17:30:00,65.8,58.4,29.93,ESE,105,0.0,0.0,77,0.00,CLR,SCT,0.00,WeatherDisplay:10.37,2013-01-12 22:30:00,
2013-01-12 17:31:00,65.8,58.4,29.93,ESE,105,0.0,0.0,77,0.00,CLR,SCT,0.00,WeatherDisplay:10.37,2013-01-12 22:31:00,
2013-01-12 17:32:00,65.6,58.2,29.93,ESE,105,0.0,0.0,77,0.00,CLR,SCT,0.00,WeatherDisplay:10.37,2013-01-12 22:32:00,
2013-01-12 17:37:00,65.0,57.6,29.93,ESE,105,0.0,0.0,77,0.00,CLR,SCT,0.00,WeatherDisplay:10.37,2013-01-12 22:37:00,
2013-01-12 17:38:00,64.8,57.4,29.93,ESE,105,0.0,0.0,77,0.00,CLR,SCT,0.00,WeatherDisplay:10.37,2013-01-12 22:38:00,
2013-01-12 17:43:00,64.0,56.6,29.93,ESE,105,0.0,0.0,77,0.00,CLR,SCT,0.00,WeatherDisplay:10.37,2013-01-12 22:43:00,
2013-01-12 17:48:00,63.4,56.1,29.93,ESE,105,0.0,0.0,77,0.00,CLR,SCT,0.00,WeatherDisplay:10.37,2013-01-12 22:48:00,
2013-01-12 17:49:00,63.2,55.9,29.93,ESE,105,0.0,0.0,77,0.00,CLR,SCT,0.00,WeatherDisplay:10.37,2013-01-12 22:49:00,
2013-01-12 17:53:00,62.9,55.6,29.94,ESE,105,0.0,0.0,77,0.00,CLR,SCT,0.00,WeatherDisplay:10.37,2013-01-12 22:53:00,
2013-01-12 17:58:00,62.4,55.4,29.94,ESE,105,0.0,0.0,78,0.00,CLR,SCT,0.00,WeatherDisplay:10.37,2013-01-12 22:58:00,
2013-01-12 18:01:00,62.1,55.2,29.94,ESE,105,0.0,0.0,78,0.00,,SCT,0.00,WeatherDisplay:10.37,2013-01-12 23:01:00,
2013-01-12 18:03:00,62.0,55.1,29.94,ESE,105,0.0,0.0,78,0.00,,SCT,0.00,WeatherDisplay:10.37,2013-01-12 23:03:00,
2013-01-12 18:06:00,61.6,54.7,29.94,ESE,105,0.0,0.0,78,0.00,,SCT,0.00,WeatherDisplay:10.37,2013-01-12 23:06:00,
2013-01-12 18:08:00,61.5,54.6,29.94,ESE,105,0.0,0.0,78,0.00,,SCT,0.00,WeatherDisplay:10.37,2013-01-12 23:08:00,
2013-01-12 18:11:00,61.2,54.3,29.94,ESE,105,0.0,0.0,78,0.00,,SCT,0.00,WeatherDisplay:10.37,2013-01-12 23:11:00,
2013-01-12 18:13:00,60.9,54.0,29.94,ESE,105,0.0,0.0,78,0.00,,SCT,0.00,WeatherDisplay:10.37,2013-01-12 23:13:00,
2013-01-12 18:17:00,60.4,53.5,29.94,ESE,105,0.0,0.0,78,0.00,,SCT,0.00,WeatherDisplay:10.37,2013-01-12 23:17:00,
2013-01-12 18:22:00,59.8,53.3,29.94,ESE,105,0.0,0.0,79,0.00,,SCT,0.00,WeatherDisplay:10.37,2013-01-12 23:22:00,
2013-01-12 18:23:00,59.6,53.1,29.94,ESE,105,0.0,0.0,79,0.00,,SCT,0.00,WeatherDisplay:10.37,2013-01-12 23:23:00,
2013-01-12 18:24:00,59.6,53.1,29.94,ESE,105,0.0,0.0,79,0.00,,SCT,0.00,WeatherDisplay:10.37,2013-01-12 23:24:00,
2013-01-12 18:28:00,59.2,52.7,29.94,ESE,105,0.0,0.0,79,0.00,,SCT,0.00,WeatherDisplay:10.37,2013-01-12 23:28:00,
2013-01-12 18:33:00,58.7,52.5,29.94,ESE,105,0.0,0.0,80,0.00,,SCT,0.00,WeatherDisplay:10.37,2013-01-12 23:33:00,
2013-01-12 18:36:00,58.4,52.3,29.94,ESE,105,0.0,0.0,80,0.00,,SCT,0.00,WeatherDisplay:10.37,2013-01-12 23:36:00,
2013-01-12 18:38:00,58.3,52.2,29.94,ESE,105,0.0,0.0,80,0.00,,SCT,0.00,WeatherDisplay:10.37,2013-01-12 23:38:00,
2013-01-12 18:43:00,58.0,51.9,29.94,ESE,105,0.0,0.0,80,0.00,,SCT,0.00,WeatherDisplay:10.37,2013-01-12 23:43:00,
2013-01-12 18:44:00,57.8,51.7,29.94,ESE,105,0.0,0.0,80,0.00,,SCT,0.00,WeatherDisplay:10.37,2013-01-12 23:44:00,
2013-01-12 18:48:00,57.6,51.5,29.94,ESE,105,0.0,0.0,80,0.00,,SCT,0.00,WeatherDisplay:10.37,2013-01-12 23:48:00,
2013-01-12 18:51:00,57.5,51.4,29.94,ESE,105,0.0,0.0,80,0.00,,SCT,0.00,WeatherDisplay:10.37,2013-01-12 23:51:00,
2013-01-12 18:52:00,57.5,51.4,29.94,ESE,105,0.0,0.0,80,0.00,,SCT,0.00,WeatherDisplay:10.37,2013-01-12 23:52:00,
2013-01-12 18:53:00,57.5,51.4,29.94,ESE,105,0.0,0.0,80,0.00,,SCT,0.00,WeatherDisplay:10.37,2013-01-12 23:53:00,
2013-01-12 18:57:00,57.3,51.5,29.94,ESE,105,0.0,0.0,81,0.00,,SCT,0.00,WeatherDisplay:10.37,2013-01-12 23:57:00,
2013-01-12 18:58:00,57.3,51.5,29.94,ESE,105,0.0,0.0,81,0.00,,SCT,0.00,WeatherDisplay:10.37,2013-01-12 23:58:00,
2013-01-12 19:03:00,57.2,51.4,29.94,ESE,105,0.0,0.0,81,0.00,,SCT,0.00,WeatherDisplay:10.37,2013-01-13 00:03:00,
2013-01-12 19:08:00,57.0,51.2,29.94,ESE,105,0.0,0.0,81,0.00,,SCT,0.00,WeatherDisplay:10.37,2013-01-13 00:08:00,
2013-01-12 19:12:00,56.9,51.1,29.94,ESE,105,0.0,0.0,81,0.00,,SCT,0.00,WeatherDisplay:10.37,2013-01-13 00:12:00,
2013-01-12 19:13:00,56.7,50.9,29.94,ESE,105,0.0,0.0,81,0.00,,SCT,0.00,WeatherDisplay:10.37,2013-01-13 00:13:00,
2013-01-12 19:14:00,56.7,50.9,29.94,ESE,105,0.0,0.0,81,0.00,,SCT,0.00,WeatherDisplay:10.37,2013-01-13 00:14:00,
2013-01-12 19:18:00,56.6,50.8,29.94,ESE,105,0.0,0.0,81,0.00,,SCT,0.00,WeatherDisplay:10.37,2013-01-13 00:18:00,
2013-01-12 19:19:00,56.6,50.8,29.94,ESE,105,0.0,0.0,81,0.00,,SCT,0.00,WeatherDisplay:10.37,2013-01-13 00:19:00,
2013-01-12 19:21:00,56.5,50.7,29.94,ESE,105,0.0,0.0,81,0.00,,SCT,0.00,WeatherDisplay:10.37,2013-01-13 00:21:00,
2013-01-12 19:25:00,56.5,50.7,29.94,ESE,105,0.0,0.0,81,0.00,,SCT,0.00,WeatherDisplay:10.37,2013-01-13 00:25:00,
2013-01-12 19:26:00,56.5,51.1,29.94,ESE,105,0.0,0.0,82,0.00,,SCT,0.00,WeatherDisplay:10.37,2013-01-13 00:26:00,
2013-01-12 19:30:00,56.3,50.9,29.94,ESE,105,0.0,0.0,82,0.00,,SCT,0.00,WeatherDisplay:10.37,2013-01-13 00:30:00,
2013-01-12 19:31:00,56.3,50.9,29.94,ESE,105,0.0,0.0,82,0.00,,SCT,0.00,WeatherDisplay:10.37,2013-01-13 00:31:00,
2013-01-12 19:36:00,56.0,50.6,29.94,ESE,105,0.0,0.0,82,0.00,,SCT,0.00,WeatherDisplay:10.37,2013-01-13 00:36:00,
2013-01-12 19:38:00,55.9,50.5,29.93,ESE,105,0.0,0.0,82,0.00,,SCT,0.00,WeatherDisplay:10.37,2013-01-13 00:38:00,
2013-01-12 19:40:00,55.9,50.5,29.93,ESE,105,0.0,0.0,82,0.00,,SCT,0.00,WeatherDisplay:10.37,2013-01-13 00:40:00,
2013-01-12 19:43:00,55.6,50.2,29.93,ESE,105,0.0,0.0,82,0.00,,SCT,0.00,WeatherDisplay:10.37,2013-01-13 00:43:00,
2013-01-12 19:47:00,55.4,50.0,29.93,ESE,105,0.0,0.0,82,0.00,,SCT,0.00,WeatherDisplay:10.37,2013-01-13 00:47:00,
2013-01-12 19:50:00,55.3,49.9,29.93,ESE,105,0.0,0.0,82,0.00,,SCT,0.00,WeatherDisplay:10.37,2013-01-13 00:50:00,
2013-01-12 19:51:00,55.1,49.7,29.93,ESE,105,0.0,0.0,82,0.00,,SCT,0.00,WeatherDisplay:10.37,2013-01-13 00:51:00,
2013-01-12 19:52:00,55.1,49.7,29.93,ESE,105,0.0,0.0,82,0.00,,SCT,0.00,WeatherDisplay:10.37,2013-01-13 00:52:00,
2013-01-12 19:56:00,55.1,50.0,29.94,ESE,105,0.0,0.0,83,0.00,,SCT,0.00,WeatherDisplay:10.37,2013-01-13 00:56:00,
2013-01-12 19:57:00,55.0,49.9,29.94,ESE,105,0.0,0.0,83,0.00,,SCT,0.00,WeatherDisplay:10.37,2013-01-13 00:57:00,
2013-01-12 20:02:00,55.0,50.3,29.94,ESE,105,0.0,0.0,84,0.00,,SCT,0.00,WeatherDisplay:10.37,2013-01-13 01:02:00,
2013-01-12 20:03:00,55.0,50.3,29.93,ESE,105,0.0,0.0,84,0.00,,SCT,0.00,WeatherDisplay:10.37,2013-01-13 01:03:00,
2013-01-12 20:04:00,55.0,49.9,29.93,ESE,105,0.0,0.0,83,0.00,,SCT,0.00,WeatherDisplay:10.37,2013-01-13 01:04:00,
2013-01-12 20:09:00,54.7,49.6,29.93,ESE,105,0.0,0.0,83,0.00,,SCT,0.00,WeatherDisplay:10.37,2013-01-13 01:09:00,
2013-01-12 20:10:00,54.7,49.6,29.93,ESE,105,0.0,0.0,83,0.00,,SCT,0.00,WeatherDisplay:10.37,2013-01-13 01:10:00,
2013-01-12 20:11:00,54.5,49.4,29.93,ESE,105,0.0,0.0,83,0.00,,SCT,0.00,WeatherDisplay:10.37,2013-01-13 01:11:00,
2013-01-12 20:14:00,54.4,49.3,29.93,ESE,105,0.0,0.0,83,0.00,,SCT,0.00,WeatherDisplay:10.37,2013-01-13 01:14:00,
2013-01-12 20:16:00,54.4,49.3,29.93,ESE,105,0.0,0.0,83,0.00,,SCT,0.00,WeatherDisplay:10.37,2013-01-13 01:16:00,
2013-01-12 20:17:00,54.2,49.1,29.93,ESE,105,0.0,0.0,83,0.00,,SCT,0.00,WeatherDisplay:10.37,2013-01-13 01:17:00,
2013-01-12 20:19:00,54.1,49.1,29.93,ESE,105,0.0,0.0,83,0.00,,SCT,0.00,WeatherDisplay:10.37,2013-01-13 01:19:00,
2013-01-12 20:22:00,53.8,48.8,29.93,ESE,105,0.0,0.0,83,0.00,,SCT,0.00,WeatherDisplay:10.37,2013-01-13 01:22:00,
2013-01-12 20:24:00,53.6,48.6,29.93,ESE,105,0.0,0.0,83,0.00,,SCT,0.00,WeatherDisplay:10.37,2013-01-13 01:24:00,
2013-01-12 20:28:00,53.5,48.5,29.93,ESE,105,0.0,0.0,83,0.00,,SCT,0.00,WeatherDisplay:10.37,2013-01-13 01:28:00,
2013-01-12 20:29:00,53.5,48.8,29.93,ESE,105,0.0,0.0,84,0.00,,SCT,0.00,WeatherDisplay:10.37,2013-01-13 01:29:00,
2013-01-12 20:30:00,53.3,48.6,29.93,ESE,105,0.0,0.0,84,0.00,,SCT,0.00,WeatherDisplay:10.37,2013-01-13 01:30:00,
2013-01-12 20:33:00,53.2,48.5,29.93,ESE,105,0.0,0.0,84,0.00,,SCT,0.00,WeatherDisplay:10.37,2013-01-13 01:33:00,
2013-01-12 20:34:00,53.2,48.5,29.93,ESE,105,0.0,0.0,84,0.00,,SCT,0.00,WeatherDisplay:10.37,2013-01-13 01:34:00,
2013-01-12 20:35:00,53.1,48.4,29.93,ESE,105,0.0,0.0,84,0.00,,SCT,0.00,WeatherDisplay:10.37,2013-01-13 01:35:00,
2013-01-12 20:39:00,52.8,47.8,29.93,ESE,105,0.0,0.0,83,0.00,,SCT,0.00,WeatherDisplay:10.37,2013-01-13 01:39:00,
2013-01-12 20:40:00,52.6,47.9,29.93,ESE,105,0.0,0.0,84,0.00,,SCT,0.00,WeatherDisplay:10.37,2013-01-13 01:40:00,
2013-01-12 20:41:00,52.6,47.9,29.93,ESE,105,0.0,0.0,84,0.00,,SCT,0.00,WeatherDisplay:10.37,2013-01-13 01:41:00,
2013-01-12 20:46:00,52.2,47.2,29.93,ESE,105,0.0,0.0,83,0.00,,SCT,0.00,WeatherDisplay:10.37,2013-01-13 01:46:00,
2013-01-12 20:47:00,52.2,47.2,29.93,ESE,105,0.0,0.0,83,0.00,,SCT,0.00,WeatherDisplay:10.37,2013-01-13 01:47:00,
2013-01-12 20:50:00,52.0,47.0,29.93,ESE,105,0.0,0.0,83,0.00,,SCT,0.00,WeatherDisplay:10.37,2013-01-13 01:50:00,
2013-01-12 20:51:00,51.9,46.9,29.93,ESE,105,0.0,0.0,83,0.00,,SCT,0.00,WeatherDisplay:10.37,2013-01-13 01:51:00,
2013-01-12 20:52:00,51.9,46.9,29.93,ESE,105,0.0,0.0,83,0.00,,SCT,0.00,WeatherDisplay:10.37,2013-01-13 01:52:00,
2013-01-12 20:54:00,51.7,47.0,29.94,ESE,105,0.0,0.0,84,0.00,,SCT,0.00,WeatherDisplay:10.37,2013-01-13 01:54:00,
2013-01-12 20:56:00,51.7,47.0,29.94,ESE,105,0.0,0.0,84,0.00,,SCT,0.00,WeatherDisplay:10.37,2013-01-13 01:56:00,
2013-01-12 20:59:00,51.6,46.9,29.94,ESE,105,0.0,0.0,84,0.00,,SCT,0.00,WeatherDisplay:10.37,2013-01-13 01:59:00,
2013-01-12 21:00:00,51.6,46.9,29.94,ESE,105,0.0,0.0,84,0.00,,SCT,0.00,WeatherDisplay:10.37,2013-01-13 02:00:00,
2013-01-12 21:05:00,51.4,46.7,29.94,ESE,105,0.0,0.0,84,0.00,,SCT,0.00,WeatherDisplay:10.37,2013-01-13 02:05:00,
2013-01-12 21:06:00,51.4,46.7,29.93,ESE,105,0.0,0.0,84,0.00,,SCT,0.00,WeatherDisplay:10.37,2013-01-13 02:06:00,
2013-01-12 21:09:00,51.3,46.6,29.93,ESE,105,0.0,0.0,84,0.00,,SCT,0.00,WeatherDisplay:10.37,2013-01-13 02:09:00,
2013-01-12 21:10:00,51.1,46.4,29.93,ESE,105,0.0,0.0,84,0.00,,SCT,0.00,WeatherDisplay:10.37,2013-01-13 02:10:00,
2013-01-12 21:14:00,51.0,46.3,29.93,ESE,105,0.0,0.0,84,0.00,,SCT,0.00,WeatherDisplay:10.37,2013-01-13 02:14:00,
2013-01-12 21:15:00,51.0,46.3,29.93,ESE,105,0.0,0.0,84,0.00,,SCT,0.00,WeatherDisplay:10.37,2013-01-13 02:15:00,
2013-01-12 21:16:00,51.0,46.3,29.93,ESE,105,0.0,0.0,84,0.00,,SCT,0.00,WeatherDisplay:10.37,2013-01-13 02:16:00,
2013-01-12 21:20:00,50.5,45.8,29.93,ESE,105,0.0,0.0,84,0.00,,SCT,0.00,WeatherDisplay:10.37,2013-01-13 02:20:00,
2013-01-12 21:22:00,50.5,45.8,29.93,ESE,105,0.0,0.0,84,0.00,,SCT,0.00,WeatherDisplay:10.37,2013-01-13 02:22:00,
2013-01-12 21:25:00,50.5,45.8,29.93,ESE,105,0.0,0.0,84,0.00,,SCT,0.00,WeatherDisplay:10.37,2013-01-13 02:25:00,
2013-01-12 21:28:00,50.5,45.8,29.93,ESE,105,0.0,0.0,84,0.00,,SCT,0.00,WeatherDisplay:10.37,2013-01-13 02:28:00,
2013-01-12 21:29:00,50.4,46.1,29.93,ESE,105,0.0,0.0,85,0.00,,SCT,0.00,WeatherDisplay:10.37,2013-01-13 02:29:00,
2013-01-12 21:33:00,50.5,46.2,29.93,ESE,105,0.0,0.0,85,0.00,,SCT,0.00,WeatherDisplay:10.37,2013-01-13 02:33:00,
2013-01-12 21:34:00,50.5,46.2,29.93,ESE,105,0.0,0.0,85,0.00,,SCT,0.00,WeatherDisplay:10.37,2013-01-13 02:34:00,
2013-01-12 21:35:00,50.4,46.1,29.93,ESE,105,0.0,0.0,85,0.00,,SCT,0.00,WeatherDisplay:10.37,2013-01-13 02:35:00,
2013-01-12 21:39:00,50.2,45.9,29.93,ESE,105,0.0,0.0,85,0.00,,SCT,0.00,WeatherDisplay:10.37,2013-01-13 02:39:00,
2013-01-12 21:40:00,50.2,45.9,29.93,ESE,105,0.0,0.0,85,0.00,,SCT,0.00,WeatherDisplay:10.37,2013-01-13 02:40:00,
2013-01-12 21:44:00,50.2,45.9,29.93,ESE,105,0.0,0.0,85,0.00,,SCT,0.00,WeatherDisplay:10.37,2013-01-13 02:44:00,
2013-01-12 21:45:00,50.2,45.9,29.93,ESE,105,0.0,0.0,85,0.00,,SCT,0.00,WeatherDisplay:10.37,2013-01-13 02:45:00,
2013-01-12 21:50:00,50.2,45.9,29.93,ESE,105,0.0,0.0,85,0.00,,SCT,0.00,WeatherDisplay:10.37,2013-01-13 02:50:00,
2013-01-12 21:55:00,50.1,45.8,29.93,ESE,105,0.0,0.0,85,0.00,,SCT,0.00,WeatherDisplay:10.37,2013-01-13 02:55:00,
2013-01-12 21:56:00,50.1,45.8,29.93,ESE,105,0.0,0.0,85,0.00,,SCT,0.00,WeatherDisplay:10.37,2013-01-13 02:56:00,
2013-01-12 22:00:00,49.9,45.6,29.93,ESE,105,0.0,0.0,85,0.00,,SCT,0.00,WeatherDisplay:10.37,2013-01-13 03:00:00,
2013-01-12 22:01:00,49.9,45.6,29.93,ESE,105,0.0,0.0,85,0.00,,SCT,0.00,WeatherDisplay:10.37,2013-01-13 03:01:00,
2013-01-12 22:04:00,49.8,45.5,29.93,ESE,105,0.0,0.0,85,0.00,,SCT,0.00,WeatherDisplay:10.37,2013-01-13 03:04:00,
2013-01-12 22:06:00,49.8,45.5,29.93,ESE,105,0.0,0.0,85,0.00,,SCT,0.00,WeatherDisplay:10.37,2013-01-13 03:06:00,
2013-01-12 22:09:00,49.6,45.3,29.93,ESE,105,0.0,0.0,85,0.00,,SCT,0.00,WeatherDisplay:10.37,2013-01-13 03:09:00,
2013-01-12 22:14:00,49.6,45.3,29.93,ESE,105,1.1,0.0,85,0.00,,SCT,0.00,WeatherDisplay:10.37,2013-01-13 03:14:00,
2013-01-12 22:15:00,49.6,45.3,29.93,ESE,105,0.0,0.0,85,0.00,,SCT,0.00,WeatherDisplay:10.37,2013-01-13 03:15:00,
2013-01-12 22:19:00,49.5,45.2,29.93,ESE,105,0.0,0.0,85,0.00,,SCT,0.00,WeatherDisplay:10.37,2013-01-13 03:19:00,
2013-01-12 22:20:00,49.4,45.1,29.93,ESE,105,0.0,0.0,85,0.00,,SCT,0.00,WeatherDisplay:10.37,2013-01-13 03:20:00,
2013-01-12 22:24:00,49.2,44.9,29.92,ESE,105,0.0,0.0,85,0.00,,SCT,0.00,WeatherDisplay:10.37,2013-01-13 03:24:00,
2013-01-12 22:25:00,49.2,44.9,29.92,ESE,105,0.0,0.0,85,0.00,,SCT,0.00,WeatherDisplay:10.37,2013-01-13 03:25:00,
2013-01-12 22:29:00,49.1,45.1,29.93,ESE,105,0.0,0.0,86,0.00,,SCT,0.00,WeatherDisplay:10.37,2013-01-13 03:29:00,
2013-01-12 22:30:00,49.1,45.1,29.93,ESE,105,0.0,0.0,86,0.00,,SCT,0.00,WeatherDisplay:10.37,2013-01-13 03:30:00,
2013-01-12 22:34:00,49.1,45.1,29.93,ESE,105,0.0,0.0,86,0.00,,SCT,0.00,WeatherDisplay:10.37,2013-01-13 03:34:00,
2013-01-12 22:36:00,49.1,45.1,29.93,ESE,105,0.0,0.0,86,0.00,,SCT,0.00,WeatherDisplay:10.37,2013-01-13 03:36:00,
2013-01-12 22:39:00,49.2,45.2,29.93,ESE,105,0.0,0.0,86,0.00,,SCT,0.00,WeatherDisplay:10.37,2013-01-13 03:39:00,
2013-01-12 22:42:00,49.2,45.2,29.93,ESE,105,0.0,0.0,86,0.00,,SCT,0.00,WeatherDisplay:10.37,2013-01-13 03:42:00,
2013-01-12 22:44:00,49.1,45.1,29.93,ESE,105,0.0,0.0,86,0.00,,SCT,0.00,WeatherDisplay:10.37,2013-01-13 03:44:00,
2013-01-12 22:47:00,48.9,44.9,29.93,ESE,105,3.5,3.5,86,0.00,,SCT,0.00,WeatherDisplay:10.37,2013-01-13 03:47:00,
2013-01-12 22:50:00,48.8,44.8,29.93,ESE,105,0.0,0.0,86,0.00,,SCT,0.00,WeatherDisplay:10.37,2013-01-13 03:50:00,
2013-01-12 22:53:00,48.6,44.6,29.93,ESE,105,0.0,0.0,86,0.00,,SCT,0.00,WeatherDisplay:10.37,2013-01-13 03:53:00,
2013-01-12 22:55:00,48.6,44.6,29.93,ESE,105,0.0,0.0,86,0.00,,SCT,0.00,WeatherDisplay:10.37,2013-01-13 03:55:00,
2013-01-12 23:00:00,48.5,44.5,29.93,ESE,105,0.0,0.0,86,0.00,,SCT,0.00,WeatherDisplay:10.37,2013-01-13 04:00:00,
2013-01-12 23:01:00,48.5,44.5,29.93,ESE,105,0.0,0.0,86,0.00,,SCT,0.00,WeatherDisplay:10.37,2013-01-13 04:01:00,
2013-01-12 23:06:00,48.2,44.2,29.93,ESE,105,1.1,0.0,86,0.00,,SCT,0.00,WeatherDisplay:10.37,2013-01-13 04:06:00,
2013-01-12 23:07:00,48.2,44.2,29.93,ESE,105,0.0,0.0,86,0.00,,SCT,0.00,WeatherDisplay:10.37,2013-01-13 04:07:00,
2013-01-12 23:11:00,48.0,44.0,29.93,ESE,105,0.0,0.0,86,0.00,,SCT,0.00,WeatherDisplay:10.37,2013-01-13 04:11:00,
2013-01-12 23:12:00,48.0,44.0,29.93,ESE,105,0.0,0.0,86,0.00,,SCT,0.00,WeatherDisplay:10.37,2013-01-13 04:12:00,
2013-01-12 23:13:00,48.0,44.0,29.93,ESE,105,0.0,0.0,86,0.00,,SCT,0.00,WeatherDisplay:10.37,2013-01-13 04:13:00,
2013-01-12 23:14:00,47.9,43.9,29.93,ESE,105,0.0,0.0,86,0.00,,SCT,0.00,WeatherDisplay:10.37,2013-01-13 04:14:00,
2013-01-12 23:18:00,47.9,43.9,29.93,ESE,105,0.0,0.0,86,0.00,,SCT,0.00,WeatherDisplay:10.37,2013-01-13 04:18:00,
2013-01-12 23:19:00,47.7,43.7,29.93,ESE,105,0.0,0.0,86,0.00,,SCT,0.00,WeatherDisplay:10.37,2013-01-13 04:19:00,
2013-01-12 23:22:00,47.7,43.7,29.93,ESE,105,0.0,0.0,86,0.00,,SCT,0.00,WeatherDisplay:10.37,2013-01-13 04:22:00,
2013-01-12 23:25:00,48.0,44.0,29.93,ESE,105,0.0,0.0,86,0.00,,SCT,0.00,WeatherDisplay:10.37,2013-01-13 04:25:00,
2013-01-12 23:26:00,48.0,44.0,29.93,ESE,105,0.0,0.0,86,0.00,,SCT,0.00,WeatherDisplay:10.37,2013-01-13 04:26:00,
2013-01-12 23:27:00,48.0,44.0,29.93,ESE,105,0.0,0.0,86,0.00,,SCT,0.00,WeatherDisplay:10.37,2013-01-13 04:27:00,
2013-01-12 23:29:00,48.2,44.2,29.93,ESE,105,0.0,0.0,86,0.00,,SCT,0.00,WeatherDisplay:10.37,2013-01-13 04:29:00,
2013-01-12 23:31:00,48.2,44.5,29.92,ESE,105,0.0,0.0,87,0.00,,SCT,0.00,WeatherDisplay:10.37,2013-01-13 04:31:00,
2013-01-12 23:32:00,48.2,44.5,29.92,ESE,105,0.0,0.0,87,0.00,,SCT,0.00,WeatherDisplay:10.37,2013-01-13 04:32:00,
2013-01-12 23:34:00,48.3,44.6,29.92,ESE,105,1.1,0.0,87,0.00,,SCT,0.00,WeatherDisplay:10.37,2013-01-13 04:34:00,
2013-01-12 23:35:00,48.3,44.6,29.92,ESE,105,0.0,0.0,87,0.00,,SCT,0.00,WeatherDisplay:10.37,2013-01-13 04:35:00,
2013-01-12 23:39:00,48.3,44.6,29.92,ESE,105,0.0,0.0,87,0.00,,SCT,0.00,WeatherDisplay:10.37,2013-01-13 04:39:00,
2013-01-12 23:40:00,48.3,44.6,29.92,ESE,105,0.0,0.0,87,0.00,,SCT,0.00,WeatherDisplay:10.37,2013-01-13 04:40:00,
2013-01-12 23:45:00,48.5,44.8,29.92,ESE,105,0.0,0.0,87,0.00,,SCT,0.00,WeatherDisplay:10.37,2013-01-13 04:45:00,
2013-01-12 23:47:00,48.6,44.9,29.92,ESE,105,0.0,0.0,87,0.00,,SCT,0.00,WeatherDisplay:10.37,2013-01-13 04:47:00,
2013-01-12 23:48:00,48.6,45.2,29.92,ESE,105,0.0,0.0,88,0.00,,SCT,0.00,WeatherDisplay:10.37,2013-01-13 04:48:00,
2013-01-12 23:52:00,49.1,45.7,29.92,ESE,105,3.0,3.0,88,0.00,,SCT,0.00,WeatherDisplay:10.37,2013-01-13 04:52:00,
2013-01-12 23:53:00,49.2,45.8,29.92,ESE,105,3.5,3.5,88,0.00,,SCT,0.00,WeatherDisplay:10.37,2013-01-13 04:53:00,
2013-01-12 23:54:00,49.4,46.0,29.92,ESE,105,3.5,3.5,88,0.00,,SCT,0.00,WeatherDisplay:10.37,2013-01-13 04:54:00,
2013-01-12 23:55:00,49.5,46.1,29.92,ESE,105,0.0,0.0,88,0.00,,SCT,0.00,WeatherDisplay:10.37,2013-01-13 04:55:00,
2013-01-12 23:57:00,49.8,46.4,29.92,ESE,105,0.0,0.0,88,0.00,,SCT,0.00,WeatherDisplay:10.37,2013-01-13 04:57:00,
2013-01-12 23:58:00,49.9,46.5,29.92,ESE,105,0.0,0.0,88,0.00,,SCT,0.00,WeatherDisplay:10.37,2013-01-13 04:58:00,